Observation data for Lomax on 11/11/2019      Previous  Date       Current Mesonet Observations  Soil Data  Daily Summary Page  Observations in Plain Language
KLO1 110600Z 21008KT 16/13 A2992 RMK A01 T01640134  RH  082%=      5-min Rain = 0
KLO1 110601Z 20010KT 16/13 A2992 RMK A01 T01640134  RH  082%=      5-min Rain = 0
KLO1 110602Z 20009KT 16/13 A2992 RMK A01 T01640134  RH  082%=      5-min Rain = 0
KLO1 110603Z 20011KT 16/13 A2991 RMK A01 T01640134  RH  082%=      5-min Rain = 0
KLO1 110604Z 20010KT 16/13 A2991 RMK A01 T01640134  RH  082%=      5-min Rain = 0
KLO1 110605Z 20010KT 16/13 A2991 RMK A01 T01640134  RH  082%=      5-min Rain = 0
KLO1 110606Z 20010KT 16/13 A2991 RMK A01 T01640134  RH  082%=      5-min Rain = 0
KLO1 110607Z 19009KT 16/13 A2991 RMK A01 T01640134  RH  082%=      5-min Rain = 0
KLO1 110608Z 19011KT 16/13 A2991 RMK A01 T01640134  RH  083%=      5-min Rain = 0
KLO1 110609Z 19010KT 16/13 A2991 RMK A01 T01640134  RH  083%=      5-min Rain = 0
KLO1 110610Z 19010KT 16/13 A2991 RMK A01 T01640134  RH  083%=      5-min Rain = 0
KLO1 110611Z 19010KT 16/13 A2991 RMK A01 T01630134  RH  083%=      5-min Rain = 0
KLO1 110612Z 19009KT 16/13 A2991 RMK A01 T01630134  RH  083%=      5-min Rain = 0
KLO1 110613Z 19009KT 16/13 A2991 RMK A01 T01630134  RH  083%=      5-min Rain = 0
KLO1 110614Z 19007KT 16/13 A2991 RMK A01 T01630133  RH  083%=      5-min Rain = 0
KLO1 110615Z 20008KT 16/13 A2991 RMK A01 T01620133  RH  083%=      5-min Rain = 0
KLO1 110616Z 20009KT 16/13 A2991 RMK A01 T01620133  RH  083%=      5-min Rain = 0
KLO1 110617Z 20009KT 16/13 A2991 RMK A01 T01620134  RH  083%=      5-min Rain = 0
KLO1 110618Z 20009KT 16/13 A2991 RMK A01 T01620134  RH  083%=      5-min Rain = 0
KLO1 110619Z 19010KT 16/13 A2991 RMK A01 T01620134  RH  083%=      5-min Rain = 0
KLO1 110620Z 19009KT 16/13 A2991 RMK A01 T01620133  RH  083%=      5-min Rain = 0
KLO1 110621Z 20009KT 16/13 A2991 RMK A01 T01620134  RH  083%=      5-min Rain = 0
KLO1 110622Z 19009KT 16/13 A2991 RMK A01 T01620134  RH  083%=      5-min Rain = 0
KLO1 110623Z 19010KT 16/13 A2991 RMK A01 T01610133  RH  084%=      5-min Rain = 0
KLO1 110624Z 20009KT 16/13 A2991 RMK A01 T01610134  RH  084%=      5-min Rain = 0
KLO1 110625Z 20011KT 16/13 A2991 RMK A01 T01610134  RH  084%=      5-min Rain = 0
KLO1 110626Z 20011KT 16/13 A2991 RMK A01 T01610134  RH  084%=      5-min Rain = 0
KLO1 110627Z 20010KT 16/13 A2991 RMK A01 T01610134  RH  084%=      5-min Rain = 0
KLO1 110628Z 19011KT 16/13 A2991 RMK A01 T01610134  RH  084%=      5-min Rain = 0
KLO1 110629Z 20010KT 16/13 A2991 RMK A01 T01610133  RH  084%=      5-min Rain = 0
KLO1 110630Z 20011KT 16/13 A2991 RMK A01 T01600133  RH  084%=      5-min Rain = 0
KLO1 110631Z 19011KT 16/13 A2991 RMK A01 T01600133  RH  084%=      5-min Rain = 0
KLO1 110632Z 19012KT 16/13 A2991 RMK A01 T01600133  RH  084%=      5-min Rain = 0
KLO1 110633Z 20011KT 16/13 A2991 RMK A01 T01600133  RH  084%=      5-min Rain = 0
KLO1 110634Z 20013KT 16/13 A2991 RMK A01 T01600133  RH  084%=      5-min Rain = 0
KLO1 110635Z 19013KT 16/13 A2991 RMK A01 T01600133  RH  084%=      5-min Rain = 0
KLO1 110636Z 20012KT 16/13 A2991 RMK A01 T01600134  RH  084%=      5-min Rain = 0
KLO1 110637Z 19011KT 16/13 A2991 RMK A01 T01600133  RH  084%=      5-min Rain = 0
KLO1 110638Z 20012KT 16/13 A2991 RMK A01 T01600133  RH  084%=      5-min Rain = 0
KLO1 110639Z 20011KT 16/13 A2991 RMK A01 T01600133  RH  084%=      5-min Rain = 0
KLO1 110640Z 20012KT 16/13 A2991 RMK A01 T01600133  RH  084%=      5-min Rain = 0
KLO1 110641Z 20011KT 16/13 A2991 RMK A01 T01600133  RH  084%=      5-min Rain = 0
KLO1 110642Z 20010KT 16/13 A2991 RMK A01 T01590133  RH  084%=      5-min Rain = 0
KLO1 110643Z 21010KT 16/13 A2992 RMK A01 T01590133  RH  084%=      5-min Rain = 0
KLO1 110644Z 21012KT 16/13 A2992 RMK A01 T01580133  RH  085%=      5-min Rain = 0
KLO1 110645Z 21011KT 16/13 A2992 RMK A01 T01580133  RH  085%=      5-min Rain = 0
KLO1 110646Z 21013KT 16/13 A2991 RMK A01 T01590133  RH  085%=      5-min Rain = 0
KLO1 110647Z 21011KT 16/13 A2991 RMK A01 T01590133  RH  085%=      5-min Rain = 0
KLO1 110648Z 20012KT 16/13 A2991 RMK A01 T01580133  RH  085%=      5-min Rain = 0
KLO1 110649Z 20012KT 16/13 A2991 RMK A01 T01580133  RH  085%=      5-min Rain = 0
KLO1 110650Z 20012KT 16/13 A2991 RMK A01 T01590133  RH  085%=      5-min Rain = 0
KLO1 110651Z 19012KT 16/13 A2991 RMK A01 T01580133  RH  085%=      5-min Rain = 0
KLO1 110652Z 20010KT 16/13 A2991 RMK A01 T01580133  RH  085%=      5-min Rain = 0
KLO1 110653Z 20011KT 16/13 A2991 RMK A01 T01580133  RH  085%=      5-min Rain = 0
KLO1 110654Z 20010KT 16/13 A2991 RMK A01 T01570132  RH  085%=      5-min Rain = 0
KLO1 110655Z 20014KT 16/13 A2991 RMK A01 T01580133  RH  085%=      5-min Rain = 0
KLO1 110656Z 20012KT 16/13 A2992 RMK A01 T01580133  RH  085%=      5-min Rain = 0
KLO1 110657Z 20010KT 16/13 A2992 RMK A01 T01580133  RH  085%=      5-min Rain = 0
KLO1 110658Z 20011KT 16/13 A2992 RMK A01 T01570133  RH  085%=      5-min Rain = 0
KLO1 110659Z 20010KT 16/13 A2991 RMK A01 T01570133  RH  085%=      5-min Rain = 0
KLO1 110700Z 20011KT 16/13 A2991 RMK A01 T01570132  RH  085%=      5-min Rain = 0
KLO1 110701Z 20012KT 16/13 A2991 RMK A01 T01570133  RH  086%=      5-min Rain = 0
KLO1 110702Z 20010KT 16/13 A2991 RMK A01 T01570133  RH  086%=      5-min Rain = 0
KLO1 110703Z 20010KT 16/13 A2991 RMK A01 T01570132  RH  085%=      5-min Rain = 0
KLO1 110704Z 20011KT 16/13 A2991 RMK A01 T01570133  RH  085%=      5-min Rain = 0
KLO1 110705Z 20010KT 16/13 A2991 RMK A01 T01570133  RH  086%=      5-min Rain = 0
KLO1 110706Z 20010KT 16/13 A2991 RMK A01 T01560132  RH  086%=      5-min Rain = 0
KLO1 110707Z 20008KT 16/13 A2991 RMK A01 T01560132  RH  086%=      5-min Rain = 0
KLO1 110708Z 20010KT 16/13 A2991 RMK A01 T01560132  RH  086%=      5-min Rain = 0
KLO1 110709Z 20010KT 16/13 A2991 RMK A01 T01550132  RH  086%=      5-min Rain = 0
KLO1 110710Z 19010KT 16/13 A2991 RMK A01 T01550132  RH  086%=      5-min Rain = 0
KLO1 110711Z 19011KT 16/13 A2991 RMK A01 T01550132  RH  086%=      5-min Rain = 0
KLO1 110712Z 19011KT 16/13 A2991 RMK A01 T01550132  RH  086%=      5-min Rain = 0
KLO1 110713Z 20009KT 16/13 A2991 RMK A01 T01550132  RH  086%=      5-min Rain = 0
KLO1 110714Z 20011KT 16/13 A2991 RMK A01 T01550132  RH  086%=      5-min Rain = 0
KLO1 110715Z 19010KT 16/13 A2991 RMK A01 T01550132  RH  086%=      5-min Rain = 0
KLO1 110716Z 20010KT 16/13 A2991 RMK A01 T01550132  RH  086%=      5-min Rain = 0
KLO1 110717Z 19008KT 16/13 A2991 RMK A01 T01550132  RH  086%=      5-min Rain = 0
KLO1 110718Z 19008KT 16/13 A2991 RMK A01 T01550132  RH  086%=      5-min Rain = 0
KLO1 110719Z 20010KT 15/13 A299 RMK A01 T01540132  RH  086%=      5-min Rain = 0
KLO1 110720Z 20009KT 15/13 A299 RMK A01 T01540132  RH  086%=      5-min Rain = 0
KLO1 110721Z 19008KT 15/13 A299 RMK A01 T01540132  RH  086%=      5-min Rain = 0
KLO1 110722Z 20008KT 16/13 A299 RMK A01 T01550132  RH  086%=      5-min Rain = 0
KLO1 110723Z 19008KT 15/13 A299 RMK A01 T01540132  RH  086%=      5-min Rain = 0
KLO1 110724Z 19011KT 15/13 A299 RMK A01 T01540132  RH  087%=      5-min Rain = 0
KLO1 110725Z 19008KT 15/13 A299 RMK A01 T01540132  RH  087%=      5-min Rain = 0
KLO1 110726Z 19008KT 15/13 A299 RMK A01 T01540132  RH  087%=      5-min Rain = 0
KLO1 110727Z 19007KT 15/13 A299 RMK A01 T01540131  RH  087%=      5-min Rain = 0
KLO1 110728Z 20008KT 15/13 A299 RMK A01 T01530131  RH  087%=      5-min Rain = 0
KLO1 110729Z 19009KT 15/13 A299 RMK A01 T01530131  RH  087%=      5-min Rain = 0
KLO1 110730Z 19009KT 15/13 A299 RMK A01 T01530131  RH  087%=      5-min Rain = 0
KLO1 110731Z 19009KT 15/13 A299 RMK A01 T01520131  RH  087%=      5-min Rain = 0
KLO1 110732Z 19010KT 15/13 A299 RMK A01 T01530131  RH  087%=      5-min Rain = 0
KLO1 110733Z 19009KT 15/13 A299 RMK A01 T01530132  RH  087%=      5-min Rain = 0
KLO1 110734Z 19010KT 15/13 A299 RMK A01 T01520131  RH  087%=      5-min Rain = 0
KLO1 110735Z 19009KT 15/13 A299 RMK A01 T01530132  RH  087%=      5-min Rain = 0
KLO1 110736Z 19009KT 15/13 A299 RMK A01 T01530131  RH  087%=      5-min Rain = 0
KLO1 110737Z 19010KT 15/13 A299 RMK A01 T01530131  RH  087%=      5-min Rain = 0
KLO1 110738Z 19009KT 15/13 A2991 RMK A01 T01520131  RH  087%=      5-min Rain = 0
KLO1 110739Z 19009KT 15/13 A299 RMK A01 T01520131  RH  087%=      5-min Rain = 0
KLO1 110740Z 19010KT 15/13 A299 RMK A01 T01520131  RH  087%=      5-min Rain = 0
KLO1 110741Z 19009KT 15/13 A2991 RMK A01 T01520132  RH  087%=      5-min Rain = 0
KLO1 110742Z 19009KT 15/13 A2991 RMK A01 T01520131  RH  087%=      5-min Rain = 0
KLO1 110743Z 19010KT 15/13 A2991 RMK A01 T01520131  RH  087%=      5-min Rain = 0
KLO1 110744Z 19009KT 15/13 A2991 RMK A01 T01520131  RH  087%=      5-min Rain = 0
KLO1 110745Z 19010KT 15/13 A2991 RMK A01 T01520131  RH  087%=      5-min Rain = 0
KLO1 110746Z 19010KT 15/13 A2991 RMK A01 T01510131  RH  088%=      5-min Rain = 0
KLO1 110747Z 19010KT 15/13 A2991 RMK A01 T01520131  RH  088%=      5-min Rain = 0
KLO1 110748Z 19010KT 15/13 A2991 RMK A01 T01520131  RH  088%=      5-min Rain = 0
KLO1 110749Z 19010KT 15/13 A2991 RMK A01 T01510131  RH  088%=      5-min Rain = 0
KLO1 110750Z 19010KT 15/13 A2991 RMK A01 T01510131  RH  088%=      5-min Rain = 0
KLO1 110751Z 19010KT 15/13 A2991 RMK A01 T01510131  RH  088%=      5-min Rain = 0
KLO1 110752Z 19010KT 15/13 A2991 RMK A01 T01510131  RH  088%=      5-min Rain = 0
KLO1 110753Z 19011KT 15/13 A2991 RMK A01 T01510131  RH  088%=      5-min Rain = 0
KLO1 110754Z 19010KT 15/13 A2991 RMK A01 T01510131  RH  088%=      5-min Rain = 0
KLO1 110755Z 19009KT 15/13 A2991 RMK A01 T01510130  RH  088%=      5-min Rain = 0
KLO1 110756Z 19010KT 15/13 A2991 RMK A01 T01510131  RH  088%=      5-min Rain = 0
KLO1 110757Z 19010KT 15/13 A2991 RMK A01 T01510131  RH  088%=      5-min Rain = 0
KLO1 110758Z 19009KT 15/13 A2991 RMK A01 T01510131  RH  088%=      5-min Rain = 0
KLO1 110759Z 19010KT 15/13 A2991 RMK A01 T01500131  RH  088%=      5-min Rain = 0
KLO1 110800Z 19009KT 15/13 A2991 RMK A01 T01500130  RH  088%=      5-min Rain = 0
KLO1 110801Z 19009KT 15/13 A2991 RMK A01 T01500130  RH  088%=      5-min Rain = 0
KLO1 110802Z 19010KT 15/13 A2991 RMK A01 T01500131  RH  088%=      5-min Rain = 0
KLO1 110803Z 19010KT 15/13 A2991 RMK A01 T01500131  RH  088%=      5-min Rain = 0
KLO1 110804Z 19008KT 15/13 A2991 RMK A01 T01500131  RH  088%=      5-min Rain = 0
KLO1 110805Z 19011KT 15/13 A2991 RMK A01 T01500131  RH  088%=      5-min Rain = 0
KLO1 110806Z 19010KT 15/13 A2991 RMK A01 T01500131  RH  088%=      5-min Rain = 0
KLO1 110807Z 19009KT 15/13 A2991 RMK A01 T01500131  RH  088%=      5-min Rain = 0
KLO1 110808Z 20008KT 15/13 A2991 RMK A01 T01500131  RH  088%=      5-min Rain = 0
KLO1 110809Z 20010KT 15/13 A2991 RMK A01 T01500131  RH  088%=      5-min Rain = 0
KLO1 110810Z 20010KT 15/13 A2991 RMK A01 T01500131  RH  088%=      5-min Rain = 0
KLO1 110811Z 19009KT 15/13 A2991 RMK A01 T01500131  RH  088%=      5-min Rain = 0
KLO1 110812Z 20009KT 15/13 A2991 RMK A01 T01510131  RH  088%=      5-min Rain = 0
KLO1 110813Z 20010KT 15/13 A2991 RMK A01 T01500131  RH  088%=      5-min Rain = 0
KLO1 110814Z 19009KT 15/13 A2991 RMK A01 T01500131  RH  088%=      5-min Rain = 0
KLO1 110815Z 20010KT 15/13 A2991 RMK A01 T01510131  RH  088%=      5-min Rain = 0
KLO1 110816Z 19009KT 15/13 A2991 RMK A01 T01510131  RH  088%=      5-min Rain = 0
KLO1 110817Z 19008KT 15/13 A2991 RMK A01 T01510131  RH  088%=      5-min Rain = 0
KLO1 110818Z 19009KT 15/13 A2991 RMK A01 T01510131  RH  088%=      5-min Rain = 0
KLO1 110819Z 19008KT 15/13 A2991 RMK A01 T01510131  RH  088%=      5-min Rain = 0
KLO1 110820Z 19008KT 15/13 A2991 RMK A01 T01500131  RH  088%=      5-min Rain = 0
KLO1 110821Z 19009KT 15/13 A2991 RMK A01 T01500131  RH  088%=      5-min Rain = 0
KLO1 110822Z 19010KT 15/13 A2991 RMK A01 T01500131  RH  088%=      5-min Rain = 0
KLO1 110823Z 19009KT 15/13 A2991 RMK A01 T01510132  RH  088%=      5-min Rain = 0
KLO1 110824Z 19008KT 15/13 A2991 RMK A01 T01510132  RH  088%=      5-min Rain = 0
KLO1 110825Z 19008KT 15/13 A2991 RMK A01 T01510131  RH  088%=      5-min Rain = 0
KLO1 110826Z 19009KT 15/13 A2991 RMK A01 T01500131  RH  088%=      5-min Rain = 0
KLO1 110827Z 19009KT 15/13 A2991 RMK A01 T01500131  RH  088%=      5-min Rain = 0
KLO1 110828Z 19009KT 15/13 A2991 RMK A01 T01500132  RH  088%=      5-min Rain = 0
KLO1 110829Z 19008KT 15/13 A2991 RMK A01 T01500131  RH  089%=      5-min Rain = 0
KLO1 110830Z 19008KT 15/13 A2991 RMK A01 T01500131  RH  089%=      5-min Rain = 0
KLO1 110831Z 19008KT 15/13 A2991 RMK A01 T01500131  RH  089%=      5-min Rain = 0
KLO1 110832Z 19008KT 15/13 A2991 RMK A01 T01500132  RH  089%=      5-min Rain = 0
KLO1 110833Z 19009KT 15/13 A2991 RMK A01 T01500131  RH  089%=      5-min Rain = 0
KLO1 110834Z 19008KT 15/13 A2991 RMK A01 T01500131  RH  089%=      5-min Rain = 0
KLO1 110835Z 19008KT 15/13 A2991 RMK A01 T01500131  RH  089%=      5-min Rain = 0
KLO1 110836Z 19009KT 15/13 A2991 RMK A01 T01500131  RH  089%=      5-min Rain = 0
KLO1 110837Z 18008KT 15/13 A2991 RMK A01 T01500131  RH  089%=      5-min Rain = 0
KLO1 110838Z 19008KT 15/13 A2991 RMK A01 T01500131  RH  089%=      5-min Rain = 0
KLO1 110839Z 18008KT 15/13 A2991 RMK A01 T01490131  RH  089%=      5-min Rain = 0
KLO1 110840Z 19008KT 15/13 A2991 RMK A01 T01490131  RH  089%=      5-min Rain = 0
KLO1 110841Z 19008KT 15/13 A2991 RMK A01 T01490131  RH  089%=      5-min Rain = 0
KLO1 110842Z 19008KT 15/13 A2991 RMK A01 T01490131  RH  089%=      5-min Rain = 0
KLO1 110843Z 19008KT 15/13 A2991 RMK A01 T01490131  RH  089%=      5-min Rain = 0
KLO1 110844Z 19008KT 15/13 A2991 RMK A01 T01490131  RH  089%=      5-min Rain = 0
KLO1 110845Z 19008KT 15/13 A2991 RMK A01 T01490131  RH  089%=      5-min Rain = 0
KLO1 110846Z 19010KT 15/13 A2991 RMK A01 T01490131  RH  089%=      5-min Rain = 0
KLO1 110847Z 19009KT 15/13 A2991 RMK A01 T01480131  RH  089%=      5-min Rain = 0
KLO1 110848Z 19009KT 15/13 A2991 RMK A01 T01480131  RH  089%=      5-min Rain = 0
KLO1 110849Z 19009KT 15/13 A2991 RMK A01 T01480130  RH  089%=      5-min Rain = 0
KLO1 110850Z 19009KT 15/13 A2991 RMK A01 T01480131  RH  089%=      5-min Rain = 0
KLO1 110851Z 19008KT 15/13 A2991 RMK A01 T01490131  RH  089%=      5-min Rain = 0
KLO1 110852Z 19009KT 15/13 A2991 RMK A01 T01490131  RH  089%=      5-min Rain = 0
KLO1 110853Z 19009KT 15/13 A299 RMK A01 T01480130  RH  089%=      5-min Rain = 0
KLO1 110854Z 19008KT 15/13 A299 RMK A01 T01480130  RH  089%=      5-min Rain = 0
KLO1 110855Z 19009KT 15/13 A299 RMK A01 T01480130  RH  089%=      5-min Rain = 0
KLO1 110856Z 19009KT 15/13 A299 RMK A01 T01480130  RH  089%=      5-min Rain = 0
KLO1 110857Z 19010KT 15/13 A299 RMK A01 T01480131  RH  089%=      5-min Rain = 0
KLO1 110858Z 19009KT 15/13 A299 RMK A01 T01480131  RH  089%=      5-min Rain = 0
KLO1 110859Z 19009KT 15/13 A299 RMK A01 T01480131  RH  089%=      5-min Rain = 0
KLO1 110900Z 19009KT 15/13 A299 RMK A01 T01480131  RH  089%=      5-min Rain = 0
KLO1 110901Z 19009KT 15/13 A299 RMK A01 T01480131  RH  089%=      5-min Rain = 0
KLO1 110902Z 19010KT 15/13 A299 RMK A01 T01480131  RH  089%=      5-min Rain = 0
KLO1 110903Z 19009KT 15/13 A299 RMK A01 T01480130  RH  089%=      5-min Rain = 0
KLO1 110904Z 19009KT 15/13 A299 RMK A01 T01480131  RH  089%=      5-min Rain = 0
KLO1 110905Z 19008KT 15/13 A299 RMK A01 T01480131  RH  089%=      5-min Rain = 0
KLO1 110906Z 19010KT 15/13 A299 RMK A01 T01480130  RH  089%=      5-min Rain = 0
KLO1 110907Z 19008KT 15/13 A299 RMK A01 T01480131  RH  090%=      5-min Rain = 0
KLO1 110908Z 19009KT 15/13 A299 RMK A01 T01480131  RH  090%=      5-min Rain = 0
KLO1 110909Z 19008KT 15/13 A299 RMK A01 T01470131  RH  090%=      5-min Rain = 0
KLO1 110910Z 19009KT 15/13 A299 RMK A01 T01480131  RH  090%=      5-min Rain = 0
KLO1 110911Z 19008KT 15/13 A299 RMK A01 T01470131  RH  090%=      5-min Rain = 0
KLO1 110912Z 19008KT 15/13 A299 RMK A01 T01470130  RH  090%=      5-min Rain = 0
KLO1 110913Z 19009KT 15/13 A299 RMK A01 T01480131  RH  090%=      5-min Rain = 0
KLO1 110914Z 19009KT 15/13 A299 RMK A01 T01480131  RH  090%=      5-min Rain = 0
KLO1 110915Z 19008KT 15/13 A299 RMK A01 T01480131  RH  090%=      5-min Rain = 0
KLO1 110916Z 19009KT 15/13 A299 RMK A01 T01480131  RH  089%=      5-min Rain = 0
KLO1 110917Z 19010KT 15/13 A299 RMK A01 T01480131  RH  090%=      5-min Rain = 0
KLO1 110918Z 19010KT 15/13 A2991 RMK A01 T01480131  RH  090%=      5-min Rain = 0
KLO1 110919Z 19010KT 15/13 A2991 RMK A01 T01480131  RH  090%=      5-min Rain = 0
KLO1 110920Z 19010KT 15/13 A2991 RMK A01 T01480131  RH  090%=      5-min Rain = 0
KLO1 110921Z 19011KT 15/13 A2991 RMK A01 T01480131  RH  090%=      5-min Rain = 0
KLO1 110922Z 19010KT 15/13 A2991 RMK A01 T01480131  RH  090%=      5-min Rain = 0
KLO1 110923Z 19010KT 15/13 A2991 RMK A01 T01480131  RH  090%=      5-min Rain = 0
KLO1 110924Z 19009KT 15/13 A2991 RMK A01 T01480131  RH  089%=      5-min Rain = 0
KLO1 110925Z 19010KT 15/13 A2991 RMK A01 T01480131  RH  089%=      5-min Rain = 0
KLO1 110926Z 19009KT 15/13 A2991 RMK A01 T01480131  RH  090%=      5-min Rain = 0
KLO1 110927Z 19010KT 15/13 A2991 RMK A01 T01490132  RH  090%=      5-min Rain = 0
KLO1 110928Z 19010KT 15/13 A2991 RMK A01 T01480131  RH  090%=      5-min Rain = 0
KLO1 110929Z 19011KT 15/13 A2991 RMK A01 T01480131  RH  090%=      5-min Rain = 0
KLO1 110930Z 19012KT 15/13 A2991 RMK A01 T01480132  RH  090%=      5-min Rain = 0
KLO1 110931Z 19011KT 15/13 A2991 RMK A01 T01490132  RH  089%=      5-min Rain = 0
KLO1 110932Z 19011KT 15/13 A2991 RMK A01 T01490132  RH  089%=      5-min Rain = 0
KLO1 110933Z 19011KT 15/13 A2991 RMK A01 T01490131  RH  089%=      5-min Rain = 0
KLO1 110934Z 19010KT 15/13 A2991 RMK A01 T01490131  RH  089%=      5-min Rain = 0
KLO1 110935Z 19009KT 15/13 A2991 RMK A01 T01480131  RH  089%=      5-min Rain = 0
KLO1 110936Z 19011KT 15/13 A2991 RMK A01 T01480131  RH  089%=      5-min Rain = 0
KLO1 110937Z 19012KT 15/13 A2991 RMK A01 T01480131  RH  090%=      5-min Rain = 0
KLO1 110938Z 19011KT 15/13 A2991 RMK A01 T01470131  RH  090%=      5-min Rain = 0
KLO1 110939Z 19011KT 15/13 A2991 RMK A01 T01470131  RH  090%=      5-min Rain = 0
KLO1 110940Z 19010KT 15/13 A2991 RMK A01 T01480131  RH  090%=      5-min Rain = 0
KLO1 110941Z 19011KT 15/13 A2991 RMK A01 T01480130  RH  090%=      5-min Rain = 0
KLO1 110942Z 19011KT 15/13 A2991 RMK A01 T01470131  RH  090%=      5-min Rain = 0
KLO1 110943Z 19011KT 15/13 A2991 RMK A01 T01470131  RH  090%=      5-min Rain = 0
KLO1 110944Z 18010KT 15/13 A2991 RMK A01 T01470131  RH  090%=      5-min Rain = 0
KLO1 110945Z 19010KT 15/13 A2991 RMK A01 T01480131  RH  090%=      5-min Rain = 0
KLO1 110946Z 19010KT 15/13 A2991 RMK A01 T01470130  RH  090%=      5-min Rain = 0
KLO1 110947Z 19010KT 15/13 A2991 RMK A01 T01480131  RH  089%=      5-min Rain = 0
KLO1 110948Z 19009KT 15/13 A2991 RMK A01 T01470130  RH  090%=      5-min Rain = 0
KLO1 110949Z 19010KT 15/13 A2991 RMK A01 T01470130  RH  090%=      5-min Rain = 0
KLO1 110950Z 19008KT 15/13 A2991 RMK A01 T01470130  RH  090%=      5-min Rain = 0
KLO1 110951Z 19010KT 15/13 A2991 RMK A01 T01470130  RH  090%=      5-min Rain = 0
KLO1 110952Z 19010KT 15/13 A2991 RMK A01 T01470130  RH  090%=      5-min Rain = 0
KLO1 110953Z 18008KT 15/13 A2991 RMK A01 T01470130  RH  090%=      5-min Rain = 0
KLO1 110954Z 18007KT 15/13 A2991 RMK A01 T01470130  RH  090%=      5-min Rain = 0
KLO1 110955Z 18007KT 15/13 A2991 RMK A01 T01460130  RH  090%=      5-min Rain = 0
KLO1 110956Z 18007KT 15/13 A2991 RMK A01 T01460130  RH  090%=      5-min Rain = 0
KLO1 110957Z 18007KT 15/13 A2991 RMK A01 T01460130  RH  090%=      5-min Rain = 0
KLO1 110958Z 19008KT 15/13 A2991 RMK A01 T01460130  RH  090%=      5-min Rain = 0
KLO1 110959Z 18008KT 15/13 A2991 RMK A01 T01460130  RH  090%=      5-min Rain = 0
KLO1 111000Z 18009KT 15/13 A2991 RMK A01 T01460130  RH  090%=      5-min Rain = 0
KLO1 111001Z 18007KT 15/13 A2991 RMK A01 T01460130  RH  090%=      5-min Rain = 0
KLO1 111002Z 19008KT 15/13 A2991 RMK A01 T01460130  RH  090%=      5-min Rain = 0
KLO1 111003Z 18007KT 15/13 A2991 RMK A01 T01460130  RH  090%=      5-min Rain = 0
KLO1 111004Z 19008KT 15/13 A2991 RMK A01 T01460130  RH  090%=      5-min Rain = 0
KLO1 111005Z 19008KT 15/13 A2991 RMK A01 T01460130  RH  090%=      5-min Rain = 0
KLO1 111006Z 18008KT 15/13 A2991 RMK A01 T01460130  RH  090%=      5-min Rain = 0
KLO1 111007Z 19008KT 15/13 A2991 RMK A01 T01460130  RH  090%=      5-min Rain = 0
KLO1 111008Z 19009KT 15/13 A2991 RMK A01 T01450129  RH  090%=      5-min Rain = 0
KLO1 111009Z 19009KT 15/13 A2991 RMK A01 T01450130  RH  090%=      5-min Rain = 0
KLO1 111010Z 19008KT 15/13 A2991 RMK A01 T01460130  RH  090%=      5-min Rain = 0
KLO1 111011Z 18007KT 15/13 A2991 RMK A01 T01460130  RH  090%=      5-min Rain = 0
KLO1 111012Z 18008KT 15/13 A2991 RMK A01 T01460130  RH  090%=      5-min Rain = 0
KLO1 111013Z 18006KT 15/13 A2991 RMK A01 T01450129  RH  090%=      5-min Rain = 0
KLO1 111014Z 19006KT 15/13 A2991 RMK A01 T01450129  RH  090%=      5-min Rain = 0
KLO1 111015Z 18006KT 15/13 A2991 RMK A01 T01450129  RH  090%=      5-min Rain = 0
KLO1 111016Z 19006KT 14/13 A2991 RMK A01 T01440129  RH  090%=      5-min Rain = 0
KLO1 111017Z 18006KT 14/13 A2991 RMK A01 T01440129  RH  090%=      5-min Rain = 0
KLO1 111018Z 18005KT 14/13 A2991 RMK A01 T01440129  RH  090%=      5-min Rain = 0
KLO1 111019Z 19007KT 14/13 A2991 RMK A01 T01440129  RH  090%=      5-min Rain = 0
KLO1 111020Z 19007KT 14/13 A2991 RMK A01 T01440129  RH  090%=      5-min Rain = 0
KLO1 111021Z 19006KT 14/13 A2992 RMK A01 T01440129  RH  091%=      5-min Rain = 0
KLO1 111022Z 19006KT 14/13 A2992 RMK A01 T01440129  RH  090%=      5-min Rain = 0
KLO1 111023Z 19006KT 14/13 A2992 RMK A01 T01440129  RH  091%=      5-min Rain = 0
KLO1 111024Z 19006KT 14/13 A2992 RMK A01 T01430128  RH  091%=      5-min Rain = 0
KLO1 111025Z 19006KT 14/13 A2992 RMK A01 T01430128  RH  091%=      5-min Rain = 0
KLO1 111026Z 20006KT 14/13 A2992 RMK A01 T01430129  RH  091%=      5-min Rain = 0
KLO1 111027Z 19006KT 14/13 A2992 RMK A01 T01430129  RH  091%=      5-min Rain = 0
KLO1 111028Z 19005KT 14/13 A2991 RMK A01 T01430129  RH  091%=      5-min Rain = 0
KLO1 111029Z 19007KT 14/13 A2991 RMK A01 T01430129  RH  091%=      5-min Rain = 0
KLO1 111030Z 19006KT 14/13 A2991 RMK A01 T01430129  RH  091%=      5-min Rain = 0
KLO1 111031Z 19006KT 14/13 A2991 RMK A01 T01430129  RH  091%=      5-min Rain = 0
KLO1 111032Z 20006KT 14/13 A2992 RMK A01 T01430128  RH  091%=      5-min Rain = 0
KLO1 111033Z 20006KT 14/13 A2992 RMK A01 T01430128  RH  091%=      5-min Rain = 0
KLO1 111034Z 20006KT 14/13 A2992 RMK A01 T01430128  RH  091%=      5-min Rain = 0
KLO1 111035Z 19007KT 14/13 A2992 RMK A01 T01430128  RH  091%=      5-min Rain = 0
KLO1 111036Z 19008KT 14/13 A2992 RMK A01 T01420128  RH  091%=      5-min Rain = 0
KLO1 111037Z 19007KT 14/13 A2992 RMK A01 T01420128  RH  091%=      5-min Rain = 0
KLO1 111038Z 19007KT 14/13 A2992 RMK A01 T01420128  RH  091%=      5-min Rain = 0
KLO1 111039Z 19008KT 14/13 A2992 RMK A01 T01420128  RH  091%=      5-min Rain = 0
KLO1 111040Z 20008KT 14/13 A2992 RMK A01 T01420128  RH  091%=      5-min Rain = 0
KLO1 111041Z 20007KT 14/13 A2992 RMK A01 T01420128  RH  091%=      5-min Rain = 0
KLO1 111042Z 19008KT 14/13 A2992 RMK A01 T01420128  RH  091%=      5-min Rain = 0
KLO1 111043Z 20009KT 14/13 A2992 RMK A01 T01420128  RH  091%=      5-min Rain = 0
KLO1 111044Z 19008KT 14/13 A2992 RMK A01 T01420128  RH  091%=      5-min Rain = 0
KLO1 111045Z 20007KT 14/13 A2992 RMK A01 T01420128  RH  091%=      5-min Rain = 0
KLO1 111046Z 20008KT 14/13 A2992 RMK A01 T01420128  RH  091%=      5-min Rain = 0
KLO1 111047Z 20010KT 14/13 A2992 RMK A01 T01410128  RH  091%=      5-min Rain = 0
KLO1 111048Z 20008KT 14/13 A2992 RMK A01 T01420128  RH  091%=      5-min Rain = 0
KLO1 111049Z 19008KT 14/13 A2992 RMK A01 T01420128  RH  091%=      5-min Rain = 0
KLO1 111050Z 20008KT 14/13 A2992 RMK A01 T01420128  RH  091%=      5-min Rain = 0
KLO1 111051Z 20008KT 14/13 A2992 RMK A01 T01420128  RH  091%=      5-min Rain = 0
KLO1 111052Z 19007KT 14/13 A2992 RMK A01 T01420128  RH  091%=      5-min Rain = 0
KLO1 111053Z 19008KT 14/13 A2992 RMK A01 T01420128  RH  091%=      5-min Rain = 0
KLO1 111054Z 19007KT 14/13 A2992 RMK A01 T01420128  RH  092%=      5-min Rain = 0
KLO1 111055Z 19008KT 14/13 A2992 RMK A01 T01420128  RH  092%=      5-min Rain = 0
KLO1 111056Z 19008KT 14/13 A2992 RMK A01 T01420128  RH  092%=      5-min Rain = 0
KLO1 111057Z 19005KT 14/13 A2992 RMK A01 T01420128  RH  092%=      5-min Rain = 0
KLO1 111058Z 19005KT 14/13 A2992 RMK A01 T01410128  RH  092%=      5-min Rain = 0
KLO1 111059Z 19005KT 14/13 A2992 RMK A01 T01410128  RH  092%=      5-min Rain = 0
KLO1 111100Z 19005KT 14/13 A2992 RMK A01 T01410128  RH  092%=      5-min Rain = 0
KLO1 111101Z 19005KT 14/13 A2993 RMK A01 T01410128  RH  092%=      5-min Rain = 0
KLO1 111102Z 19006KT 14/13 A2993 RMK A01 T01410128  RH  092%=      5-min Rain = 0
KLO1 111103Z 19005KT 14/13 A2993 RMK A01 T01410128  RH  092%=      5-min Rain = 0
KLO1 111104Z 18004KT 14/13 A2993 RMK A01 T01410128  RH  092%=      5-min Rain = 0
KLO1 111105Z 19005KT 14/13 A2993 RMK A01 T01410127  RH  092%=      5-min Rain = 0
KLO1 111106Z 19004KT 14/13 A2993 RMK A01 T01400127  RH  092%=      5-min Rain = 0
KLO1 111107Z 19005KT 14/13 A2993 RMK A01 T01400127  RH  092%=      5-min Rain = 0
KLO1 111108Z 18004KT 14/13 A2993 RMK A01 T01400127  RH  092%=      5-min Rain = 0
KLO1 111109Z 18004KT 14/13 A2993 RMK A01 T01400127  RH  092%=      5-min Rain = 0
KLO1 111110Z 18004KT 14/13 A2993 RMK A01 T01400127  RH  092%=      5-min Rain = 0
KLO1 111111Z 18004KT 14/13 A2993 RMK A01 T01400127  RH  092%=      5-min Rain = 0
KLO1 111112Z 19004KT 14/13 A2993 RMK A01 T01400127  RH  092%=      5-min Rain = 0
KLO1 111113Z 19004KT 14/13 A2993 RMK A01 T01400127  RH  092%=      5-min Rain = 0
KLO1 111114Z 18004KT 14/13 A2993 RMK A01 T01400127  RH  092%=      5-min Rain = 0
KLO1 111115Z 18004KT 14/13 A2993 RMK A01 T01390127  RH  092%=      5-min Rain = 0
KLO1 111116Z 18004KT 14/13 A2993 RMK A01 T01390126  RH  092%=      5-min Rain = 0
KLO1 111117Z 19003KT 14/13 A2993 RMK A01 T01390126  RH  092%=      5-min Rain = 0
KLO1 111118Z 18003KT 14/13 A2993 RMK A01 T01380126  RH  092%=      5-min Rain = 0
KLO1 111119Z 19003KT 14/13 A2993 RMK A01 T01380125  RH  092%=      5-min Rain = 0
KLO1 111120Z 19003KT 14/13 A2993 RMK A01 T01370125  RH  092%=      5-min Rain = 0
KLO1 111121Z 19003KT 14/13 A2993 RMK A01 T01370125  RH  092%=      5-min Rain = 0
KLO1 111122Z 20004KT 14/12 A2993 RMK A01 T01370124  RH  092%=      5-min Rain = 0
KLO1 111123Z 20005KT 14/12 A2993 RMK A01 T01360124  RH  093%=      5-min Rain = 0
KLO1 111124Z 20004KT 14/13 A2993 RMK A01 T01360125  RH  093%=      5-min Rain = 0
KLO1 111125Z 20005KT 14/13 A2993 RMK A01 T01360125  RH  093%=      5-min Rain = 0
KLO1 111126Z 20005KT 14/13 A2993 RMK A01 T01360125  RH  093%=      5-min Rain = 0
KLO1 111127Z 20005KT 14/13 A2993 RMK A01 T01360125  RH  093%=      5-min Rain = 0
KLO1 111128Z 20005KT 14/13 A2993 RMK A01 T01360125  RH  093%=      5-min Rain = 0
KLO1 111129Z 20005KT 14/13 A2993 RMK A01 T01360125  RH  093%=      5-min Rain = 0
KLO1 111130Z 21005KT 14/13 A2994 RMK A01 T01360125  RH  093%=      5-min Rain = 0
KLO1 111131Z 21006KT 14/13 A2994 RMK A01 T01360125  RH  093%=      5-min Rain = 0
KLO1 111132Z 21005KT 14/13 A2994 RMK A01 T01360125  RH  093%=      5-min Rain = 0
KLO1 111133Z 21006KT 14/13 A2994 RMK A01 T01360126  RH  093%=      5-min Rain = 0
KLO1 111134Z 20006KT 14/13 A2994 RMK A01 T01360126  RH  093%=      5-min Rain = 0
KLO1 111135Z 21006KT 14/13 A2994 RMK A01 T01360125  RH  093%=      5-min Rain = 0
KLO1 111136Z 21005KT 14/13 A2994 RMK A01 T01360126  RH  093%=      5-min Rain = 0
KLO1 111137Z 21006KT 14/13 A2994 RMK A01 T01360126  RH  093%=      5-min Rain = 0
KLO1 111138Z 21006KT 14/13 A2994 RMK A01 T01360126  RH  093%=      5-min Rain = 0
KLO1 111139Z 21006KT 14/13 A2994 RMK A01 T01360126  RH  093%=      5-min Rain = 0
KLO1 111140Z 20007KT 14/13 A2994 RMK A01 T01360126  RH  093%=      5-min Rain = 0
KLO1 111141Z 20007KT 14/13 A2994 RMK A01 T01360126  RH  093%=      5-min Rain = 0
KLO1 111142Z 20006KT 14/13 A2994 RMK A01 T01360125  RH  093%=      5-min Rain = 0
KLO1 111143Z 20006KT 14/13 A2994 RMK A01 T01360125  RH  093%=      5-min Rain = 0
KLO1 111144Z 20005KT 14/13 A2994 RMK A01 T01360125  RH  093%=      5-min Rain = 0
KLO1 111145Z 20005KT 14/13 A2994 RMK A01 T01350125  RH  093%=      5-min Rain = 0
KLO1 111146Z 20004KT 14/13 A2994 RMK A01 T01350125  RH  094%=      5-min Rain = 0
KLO1 111147Z 20004KT 14/13 A2994 RMK A01 T01350125  RH  093%=      5-min Rain = 0
KLO1 111148Z 19004KT 14/13 A2994 RMK A01 T01360126  RH  094%=      5-min Rain = 0
KLO1 111149Z 19004KT 14/13 A2994 RMK A01 T01350125  RH  094%=      5-min Rain = 0
KLO1 111150Z 19004KT 14/13 A2994 RMK A01 T01350125  RH  094%=      5-min Rain = 0
KLO1 111151Z 18003KT 14/13 A2994 RMK A01 T01350125  RH  094%=      5-min Rain = 0
KLO1 111152Z 17003KT 14/13 A2994 RMK A01 T01350125  RH  094%=      5-min Rain = 0
KLO1 111153Z 17003KT 14/13 A2994 RMK A01 T01350125  RH  094%=      5-min Rain = 0
KLO1 111154Z 17002KT 14/12 A2994 RMK A01 T01350124  RH  094%=      5-min Rain = 0
KLO1 111155Z 15002KT 13/12 A2994 RMK A01 T01340124  RH  094%=      5-min Rain = 0
KLO1 111156Z 14002KT 13/12 A2994 RMK A01 T01340124  RH  094%=      5-min Rain = 0
KLO1 111157Z 14002KT 13/12 A2994 RMK A01 T01340124  RH  094%=      5-min Rain = 0
KLO1 111158Z 15002KT 13/12 A2995 RMK A01 T01340124  RH  094%=      5-min Rain = 0
KLO1 111159Z 15002KT 13/12 A2995 RMK A01 T01340124  RH  094%=      5-min Rain = 0
KLO1 111200Z 13002KT 13/12 A2995 RMK A01 T01340124  RH  094%=      5-min Rain = 0
KLO1 111201Z 14002KT 13/12 A2995 RMK A01 T01340124  RH  094%=      5-min Rain = 0
KLO1 111202Z 15002KT 13/12 A2995 RMK A01 T01340124  RH  094%=      5-min Rain = 0
KLO1 111203Z 17002KT 13/12 A2995 RMK A01 T01330123  RH  094%=      5-min Rain = 0
KLO1 111204Z 18003KT 13/12 A2995 RMK A01 T01330124  RH  094%=      5-min Rain = 0
KLO1 111205Z 18003KT 13/12 A2995 RMK A01 T01330124  RH  094%=      5-min Rain = 0
KLO1 111206Z 20004KT 13/12 A2995 RMK A01 T01330124  RH  094%=      5-min Rain = 0
KLO1 111207Z 21003KT 13/12 A2995 RMK A01 T01330124  RH  094%=      5-min Rain = 0
KLO1 111208Z 22004KT 13/12 A2995 RMK A01 T01330124  RH  094%=      5-min Rain = 0
KLO1 111209Z 22004KT 13/12 A2995 RMK A01 T01330123  RH  094%=      5-min Rain = 0
KLO1 111210Z 22005KT 13/12 A2995 RMK A01 T01330123  RH  094%=      5-min Rain = 0
KLO1 111211Z 22005KT 13/12 A2995 RMK A01 T01330124  RH  094%=      5-min Rain = 0
KLO1 111212Z 22005KT 13/12 A2995 RMK A01 T01330124  RH  094%=      5-min Rain = 0
KLO1 111213Z 22005KT 13/12 A2995 RMK A01 T01330124  RH  094%=      5-min Rain = 0
KLO1 111214Z 22005KT 13/12 A2995 RMK A01 T01330124  RH  094%=      5-min Rain = 0
KLO1 111215Z 21005KT 13/12 A2995 RMK A01 T01330124  RH  094%=      5-min Rain = 0
KLO1 111216Z 22004KT 13/12 A2996 RMK A01 T01330124  RH  094%=      5-min Rain = 0
KLO1 111217Z 22002KT 13/12 A2996 RMK A01 T01330124  RH  094%=      5-min Rain = 0
KLO1 111218Z 23002KT 13/12 A2996 RMK A01 T01330124  RH  094%=      5-min Rain = 0
KLO1 111219Z 24001KT 13/12 A2997 RMK A01 T01330124  RH  094%=      5-min Rain = 0
KLO1 111220Z 31000KT 13/12 A2997 RMK A01 T01330124  RH  094%=      5-min Rain = 0
KLO1 111221Z 35003KT 13/12 A2998 RMK A01 T01330123  RH  094%=      5-min Rain = 0
KLO1 111222Z 35007KT 13/12 A2999 RMK A01 T01320122  RH  094%=      5-min Rain = 0
KLO1 111223Z 35010KT 13/12 A2999 RMK A01 T01320123  RH  094%=      5-min Rain = 0
KLO1 111224Z 34011KT 13/12 A30 RMK A01 T01320123  RH  094%=      5-min Rain = 0
KLO1 111225Z 34011KT 13/12 A2999 RMK A01 T01320123  RH  094%=      5-min Rain = 0
KLO1 111226Z 34011KT 13/12 A30 RMK A01 T01330124  RH  094%=      5-min Rain = 0
KLO1 111227Z 35011KT 13/12 A30 RMK A01 T01330124  RH  094%=      5-min Rain = 0
KLO1 111228Z 35011KT 13/12 A30 RMK A01 T01330124  RH  094%=      5-min Rain = 0
KLO1 111229Z 35011KT 13/13 A30 RMK A01 T01340125  RH  094%=      5-min Rain = 0
KLO1 111230Z 36008KT 13/13 A3001 RMK A01 T01330125  RH  094%=      5-min Rain = 0
KLO1 111231Z 35008KT 13/13 A3001 RMK A01 T01330125  RH  094%=      5-min Rain = 0
KLO1 111232Z 35008KT 13/13 A30 RMK A01 T01330125  RH  094%=      5-min Rain = 0
KLO1 111233Z 34007KT 13/13 A30 RMK A01 T01330125  RH  094%=      5-min Rain = 0
KLO1 111234Z 34006KT 13/13 A30 RMK A01 T01330125  RH  094%=      5-min Rain = 0
KLO1 111235Z 34006KT 13/12 A30 RMK A01 T01330124  RH  094%=      5-min Rain = 0
KLO1 111236Z 35006KT 13/12 A30 RMK A01 T01320124  RH  094%=      5-min Rain = 0
KLO1 111237Z 35005KT 13/12 A30 RMK A01 T01320123  RH  094%=      5-min Rain = 0
KLO1 111238Z 35005KT 13/12 A30 RMK A01 T01320124  RH  095%=      5-min Rain = 0
KLO1 111239Z 36005KT 13/12 A30 RMK A01 T01320124  RH  095%=      5-min Rain = 0
KLO1 111240Z 00004KT 13/12 A30 RMK A01 T01330124  RH  095%=      5-min Rain = 0
KLO1 111241Z 01002KT 13/13 A30 RMK A01 T01330125  RH  095%=      5-min Rain = 0
KLO1 111242Z 00002KT 13/13 A30 RMK A01 T01330125  RH  094%=      5-min Rain = 0
KLO1 111243Z 01002KT 13/12 A30 RMK A01 T01330124  RH  094%=      5-min Rain = 0
KLO1 111244Z 02002KT 13/12 A30 RMK A01 T01330124  RH  094%=      5-min Rain = 0
KLO1 111245Z 01002KT 13/12 A3001 RMK A01 T01320123  RH  094%=      5-min Rain = 0
KLO1 111246Z 01002KT 13/12 A3001 RMK A01 T01320123  RH  094%=      5-min Rain = 0
KLO1 111247Z 00002KT 13/12 A3001 RMK A01 T01320123  RH  094%=      5-min Rain = 0
KLO1 111248Z 36002KT 13/12 A3001 RMK A01 T01320123  RH  094%=      5-min Rain = 0
KLO1 111249Z 36002KT 13/12 A3001 RMK A01 T01310122  RH  094%=      5-min Rain = 0
KLO1 111250Z 35003KT 13/12 A3001 RMK A01 T01300121  RH  094%=      5-min Rain = 0
KLO1 111251Z 36003KT 13/12 A3001 RMK A01 T01300121  RH  094%=      5-min Rain = 0
KLO1 111252Z 36003KT 13/12 A3001 RMK A01 T01300121  RH  094%=      5-min Rain = 0
KLO1 111253Z 36003KT 13/12 A3002 RMK A01 T01300121  RH  094%=      5-min Rain = 0
KLO1 111254Z 36003KT 13/12 A3002 RMK A01 T01300122  RH  095%=      5-min Rain = 0
KLO1 111255Z 36003KT 13/12 A3002 RMK A01 T01310122  RH  095%=      5-min Rain = 0
KLO1 111256Z 35004KT 13/12 A3002 RMK A01 T01310122  RH  095%=      5-min Rain = 0
KLO1 111257Z 35004KT 13/12 A3002 RMK A01 T01310122  RH  095%=      5-min Rain = 0
KLO1 111258Z 36004KT 13/12 A3002 RMK A01 T01310122  RH  095%=      5-min Rain = 0
KLO1 111259Z 36005KT 13/12 A3003 RMK A01 T01310123  RH  095%=      5-min Rain = 0
KLO1 111300Z 35004KT 13/12 A3003 RMK A01 T01320124  RH  095%=      5-min Rain = 0
KLO1 111301Z 35005KT 13/12 A3003 RMK A01 T01320124  RH  095%=      5-min Rain = 0
KLO1 111302Z 35004KT 13/12 A3003 RMK A01 T01320124  RH  095%=      5-min Rain = 0
KLO1 111303Z 35004KT 13/12 A3003 RMK A01 T01320123  RH  095%=      5-min Rain = 0
KLO1 111304Z 36004KT 13/12 A3003 RMK A01 T01320123  RH  095%=      5-min Rain = 0
KLO1 111305Z 00004KT 13/12 A3004 RMK A01 T01320123  RH  095%=      5-min Rain = 0
KLO1 111306Z 00004KT 13/12 A3004 RMK A01 T01310123  RH  095%=      5-min Rain = 0
KLO1 111307Z 00003KT 13/12 A3004 RMK A01 T01320123  RH  095%=      5-min Rain = 0
KLO1 111308Z 36004KT 13/12 A3004 RMK A01 T01310123  RH  095%=      5-min Rain = 0
KLO1 111309Z 00004KT 13/12 A3004 RMK A01 T01310122  RH  095%=      5-min Rain = 0
KLO1 111310Z 36005KT 13/12 A3004 RMK A01 T01300122  RH  095%=      5-min Rain = 0
KLO1 111311Z 36007KT 13/12 A3005 RMK A01 T01300122  RH  095%=      5-min Rain = 0
KLO1 111312Z 35006KT 13/12 A3005 RMK A01 T01310123  RH  095%=      5-min Rain = 0
KLO1 111313Z 35007KT 13/12 A3005 RMK A01 T01310123  RH  095%=      5-min Rain = 0
KLO1 111314Z 35007KT 13/12 A3005 RMK A01 T01310123  RH  095%=      5-min Rain = 0
KLO1 111315Z 35008KT 13/12 A3005 RMK A01 T01310122  RH  095%=      5-min Rain = 0
KLO1 111316Z 36009KT 13/12 A3006 RMK A01 T01300122  RH  095%=      5-min Rain = 0
KLO1 111317Z 35010KT 13/12 A3006 RMK A01 T01300121  RH  094%=      5-min Rain = 0
KLO1 111318Z 36014G23KT 13/12 A3006 RMK A01 T01290120  RH  094%=      5-min Rain = 0
KLO1 111319Z 35019G25KT 13/11 A3006 RMK A01 T01280114  RH  091%=      5-min Rain = 0
KLO1 111320Z 35021KT 13/10 A3007 RMK A01 T01250100  RH  085%=      5-min Rain = 0
KLO1 111321Z 00022KT 12/09 A3007 RMK A01 T01220088  RH  079%=      5-min Rain = 0
KLO1 111322Z 01021G26KT 12/08 A3007 RMK A01 T01200081  RH  077%=      5-min Rain = 0
KLO1 111323Z 00019KT 12/08 A3008 RMK A01 T01190077  RH  075%=      5-min Rain = 0
KLO1 111324Z 00016KT 12/08 A3008 RMK A01 T01180075  RH  075%=      5-min Rain = 0
KLO1 111325Z 00016KT 12/07 A3008 RMK A01 T01170073  RH  075%=      5-min Rain = 0
KLO1 111326Z 00018KT 12/07 A3008 RMK A01 T01160070  RH  073%=      5-min Rain = 0
KLO1 111327Z 00018KT 12/07 A3008 RMK A01 T01150068  RH  072%=      5-min Rain = 0
KLO1 111328Z 00015KT 12/07 A3008 RMK A01 T01150068  RH  073%=      5-min Rain = 0
KLO1 111329Z 01019G25KT 12/07 A3009 RMK A01 T01150068  RH  073%=      5-min Rain = 0
KLO1 111330Z 01021G26KT 12/07 A3009 RMK A01 T01150068  RH  073%=      5-min Rain = 0
KLO1 111331Z 01019G26KT 12/07 A3009 RMK A01 T01150066  RH  072%=      5-min Rain = 0
KLO1 111332Z 01017KT 11/07 A3009 RMK A01 T01140067  RH  073%=      5-min Rain = 0
KLO1 111333Z 01014G19KT 11/07 A3009 RMK A01 T01140067  RH  073%=      5-min Rain = 0
KLO1 111334Z 00015KT 11/07 A3009 RMK A01 T01140067  RH  073%=      5-min Rain = 0
KLO1 111335Z 00013KT 11/07 A3009 RMK A01 T01130067  RH  073%=      5-min Rain = 0
KLO1 111336Z 00015KT 11/07 A3009 RMK A01 T01140066  RH  072%=      5-min Rain = 0
KLO1 111337Z 01015KT 11/07 A3009 RMK A01 T01130065  RH  073%=      5-min Rain = 0
KLO1 111338Z 01015KT 11/07 A3009 RMK A01 T01120066  RH  073%=      5-min Rain = 0
KLO1 111339Z 01014KT 11/07 A3009 RMK A01 T01120066  RH  073%=      5-min Rain = 0
KLO1 111340Z 01016KT 11/07 A301 RMK A01 T01110067  RH  074%=      5-min Rain = 0
KLO1 111341Z 01016KT 11/07 A301 RMK A01 T01110065  RH  073%=      5-min Rain = 0
KLO1 111342Z 01016KT 11/06 A301 RMK A01 T01110064  RH  073%=      5-min Rain = 0
KLO1 111343Z 00016KT 11/06 A301 RMK A01 T01110064  RH  073%=      5-min Rain = 0
KLO1 111344Z 01016KT 11/07 A301 RMK A01 T01110065  RH  073%=      5-min Rain = 0
KLO1 111345Z 01016KT 11/07 A301 RMK A01 T01100066  RH  074%=      5-min Rain = 0
KLO1 111346Z 01017KT 11/07 A301 RMK A01 T01100066  RH  074%=      5-min Rain = 0
KLO1 111347Z 01013KT 11/07 A301 RMK A01 T01100066  RH  074%=      5-min Rain = 0
KLO1 111348Z 00015G20KT 11/07 A301 RMK A01 T01100066  RH  074%=      5-min Rain = 0
KLO1 111349Z 01015KT 11/07 A301 RMK A01 T01090066  RH  074%=      5-min Rain = 0
KLO1 111350Z 00014KT 11/07 A301 RMK A01 T01090065  RH  074%=      5-min Rain = 0
KLO1 111351Z 00017KT 11/07 A301 RMK A01 T01090065  RH  074%=      5-min Rain = 0
KLO1 111352Z 36017KT 11/06 A301 RMK A01 T01090063  RH  074%=      5-min Rain = 0
KLO1 111353Z 00015KT 11/06 A3011 RMK A01 T01090064  RH  074%=      5-min Rain = 0
KLO1 111354Z 00016KT 11/07 A3011 RMK A01 T01080065  RH  074%=      5-min Rain = 0
KLO1 111355Z 00017KT 11/06 A3011 RMK A01 T01080064  RH  074%=      5-min Rain = 0
KLO1 111356Z 01018KT 11/06 A3011 RMK A01 T01080064  RH  074%=      5-min Rain = 0
KLO1 111357Z 01016KT 11/07 A3011 RMK A01 T01080065  RH  075%=      5-min Rain = 0
KLO1 111358Z 01018KT 11/07 A3011 RMK A01 T01080066  RH  075%=      5-min Rain = 0
KLO1 111359Z 01017KT 11/07 A3011 RMK A01 T01080066  RH  075%=      5-min Rain = 0
KLO1 111400Z 01018G23KT 11/07 A3011 RMK A01 T01080066  RH  075%=      5-min Rain = 0
KLO1 111401Z 01016KT 11/07 A3012 RMK A01 T01080066  RH  075%=      5-min Rain = 0
KLO1 111402Z 00014G21KT 11/07 A3012 RMK A01 T01080067  RH  076%=      5-min Rain = 0
KLO1 111403Z 01014G19KT 11/07 A3012 RMK A01 T01080068  RH  076%=      5-min Rain = 0
KLO1 111404Z 01017G23KT 11/07 A3012 RMK A01 T01080068  RH  076%=      5-min Rain = 0
KLO1 111405Z 01015KT 11/07 A3012 RMK A01 T01080069  RH  077%=      5-min Rain = 0
KLO1 111406Z 01013KT 11/07 A3013 RMK A01 T01090070  RH  077%=      5-min Rain = 0
KLO1 111407Z 01015KT 11/07 A3013 RMK A01 T01080071  RH  078%=      5-min Rain = 0
KLO1 111408Z 01017G22KT 11/07 A3013 RMK A01 T01090071  RH  078%=      5-min Rain = 0
KLO1 111409Z 01016KT 11/07 A3013 RMK A01 T01090072  RH  078%=      5-min Rain = 0
KLO1 111410Z 01015KT 11/07 A3013 RMK A01 T01090073  RH  078%=      5-min Rain = 0
KLO1 111411Z 01014KT 11/07 A3013 RMK A01 T01090073  RH  078%=      5-min Rain = 0
KLO1 111412Z 01014KT 11/07 A3013 RMK A01 T01090073  RH  078%=      5-min Rain = 0
KLO1 111413Z 01016KT 11/07 A3014 RMK A01 T01090073  RH  078%=      5-min Rain = 0
KLO1 111414Z 00016KT 11/07 A3014 RMK A01 T01090073  RH  078%=      5-min Rain = 0
KLO1 111415Z 01017KT 11/07 A3014 RMK A01 T01090072  RH  078%=      5-min Rain = 0
KLO1 111416Z 01018KT 11/07 A3014 RMK A01 T01090073  RH  078%=      5-min Rain = 0
KLO1 111417Z 01016KT 11/07 A3014 RMK A01 T01090072  RH  078%=      5-min Rain = 0
KLO1 111418Z 01017KT 11/07 A3014 RMK A01 T01090073  RH  078%=      5-min Rain = 0
KLO1 111419Z 01019KT 11/07 A3014 RMK A01 T01090073  RH  078%=      5-min Rain = 0
KLO1 111420Z 01019KT 11/07 A3014 RMK A01 T01080072  RH  078%=      5-min Rain = 0
KLO1 111421Z 01017KT 11/07 A3014 RMK A01 T01080072  RH  078%=      5-min Rain = 0
KLO1 111422Z 01018KT 11/07 A3015 RMK A01 T01080072  RH  078%=      5-min Rain = 0
KLO1 111423Z 01016KT 11/07 A3015 RMK A01 T01090072  RH  078%=      5-min Rain = 0
KLO1 111424Z 01016KT 11/07 A3015 RMK A01 T01080073  RH  079%=      5-min Rain = 0
KLO1 111425Z 01016G21KT 11/07 A3015 RMK A01 T01080073  RH  079%=      5-min Rain = 0
KLO1 111426Z 01019G24KT 11/07 A3015 RMK A01 T01080073  RH  079%=      5-min Rain = 0
KLO1 111427Z 01018G25KT 11/07 A3015 RMK A01 T01070072  RH  079%=      5-min Rain = 0
KLO1 111428Z 01020KT 11/07 A3015 RMK A01 T01070070  RH  078%=      5-min Rain = 0
KLO1 111429Z 02018KT 11/07 A3015 RMK A01 T01070071  RH  079%=      5-min Rain = 0
KLO1 111430Z 01024KT 11/07 A3015 RMK A01 T01060070  RH  078%=      5-min Rain = 0
KLO1 111431Z 02022G27KT 11/07 A3015 RMK A01 T01060068  RH  077%=      5-min Rain = 0
KLO1 111432Z 01025KT 11/07 A3015 RMK A01 T01050067  RH  077%=      5-min Rain = 0
KLO1 111433Z 02023G29KT 10/07 A3015 RMK A01 T01040065  RH  076%=      5-min Rain = 0
KLO1 111434Z 02020KT 10/06 A3015 RMK A01 T01040064  RH  077%=      5-min Rain = 0
KLO1 111435Z 01023G29KT 10/06 A3015 RMK A01 T01030064  RH  077%=      5-min Rain = 0
KLO1 111436Z 02027G32KT 10/06 A3015 RMK A01 T01020060  RH  075%=      5-min Rain = 0
KLO1 111437Z 01025G30KT 10/06 A3016 RMK A01 T01010058  RH  075%=      5-min Rain = 0
KLO1 111438Z 01022KT 10/06 A3016 RMK A01 T01000058  RH  075%=      5-min Rain = 0
KLO1 111439Z 02023G28KT 10/06 A3016 RMK A01 T01000058  RH  075%=      5-min Rain = 0
KLO1 111440Z 01021KT 10/06 A3016 RMK A01 T00990058  RH  075%=      5-min Rain = 0
KLO1 111441Z 01023G32KT 10/06 A3016 RMK A01 T00990057  RH  075%=      5-min Rain = 0
KLO1 111442Z 02027KT 10/06 A3016 RMK A01 T00980056  RH  075%=      5-min Rain = 0
KLO1 111443Z 02025KT 10/05 A3016 RMK A01 T00970054  RH  074%=      5-min Rain = 0
KLO1 111444Z 02024G30KT 10/05 A3016 RMK A01 T00970054  RH  075%=      5-min Rain = 0
KLO1 111445Z 02025KT 10/05 A3016 RMK A01 T00960053  RH  075%=      5-min Rain = 0
KLO1 111446Z 02027KT 10/05 A3017 RMK A01 T00950052  RH  074%=      5-min Rain = 0
KLO1 111447Z 03025G30KT 10/05 A3017 RMK A01 T00950052  RH  075%=      5-min Rain = 0
KLO1 111448Z 02026KT 09/05 A3017 RMK A01 T00940052  RH  075%=      5-min Rain = 0
KLO1 111449Z 02023KT 09/05 A3017 RMK A01 T00940052  RH  075%=      5-min Rain = 0
KLO1 111450Z 02022G28KT 09/05 A3017 RMK A01 T00940053  RH  075%=      5-min Rain = 0
KLO1 111451Z 02023KT 09/05 A3017 RMK A01 T00940052  RH  075%=      5-min Rain = 0
KLO1 111452Z 02023G29KT 09/05 A3017 RMK A01 T00940051  RH  075%=      5-min Rain = 0
KLO1 111453Z 02025KT 09/05 A3017 RMK A01 T00940052  RH  075%=      5-min Rain = 0
KLO1 111454Z 02025G31KT 09/05 A3018 RMK A01 T00930050  RH  074%=      5-min Rain = 0
KLO1 111455Z 01023KT 09/05 A3018 RMK A01 T00930050  RH  074%=      5-min Rain = 0
KLO1 111456Z 02023KT 09/05 A3018 RMK A01 T00930050  RH  075%=      5-min Rain = 0
KLO1 111457Z 02027KT 09/05 A3019 RMK A01 T00920049  RH  074%=      5-min Rain = 0
KLO1 111458Z 02025G30KT 09/05 A3019 RMK A01 T00910046  RH  074%=      5-min Rain = 0
KLO1 111459Z 02027G33KT 09/05 A3019 RMK A01 T00900045  RH  073%=      5-min Rain = 0
KLO1 111500Z 03028KT 09/04 A3019 RMK A01 T00890044  RH  073%=      5-min Rain = 0
KLO1 111501Z 02024KT 09/04 A3019 RMK A01 T00880043  RH  073%=      5-min Rain = 0
KLO1 111502Z 01025G30KT 09/04 A3019 RMK A01 T00880043  RH  074%=      5-min Rain = 0
KLO1 111503Z 02030G35KT 09/04 A3019 RMK A01 T00870042  RH  073%=      5-min Rain = 0
KLO1 111504Z 02027KT 09/04 A3019 RMK A01 T00860040  RH  073%=      5-min Rain = 0
KLO1 111505Z 02027G32KT 09/04 A3019 RMK A01 T00860040  RH  073%=      5-min Rain = 0
KLO1 111506Z 02028G33KT 09/04 A3019 RMK A01 T00850039  RH  073%=      5-min Rain = 0
KLO1 111507Z 02026KT 09/04 A3019 RMK A01 T00850038  RH  073%=      5-min Rain = 0
KLO1 111508Z 02025KT 08/04 A3019 RMK A01 T00840038  RH  073%=      5-min Rain = 0
KLO1 111509Z 02023G28KT 08/04 A3019 RMK A01 T00840038  RH  073%=      5-min Rain = 0
KLO1 111510Z 01023KT 08/04 A3019 RMK A01 T00840038  RH  073%=      5-min Rain = 0
KLO1 111511Z 01024KT 08/04 A302 RMK A01 T00840038  RH  073%=      5-min Rain = 0
KLO1 111512Z 02025KT 08/04 A302 RMK A01 T00840037  RH  072%=      5-min Rain = 0
KLO1 111513Z 02022G29KT 08/04 A302 RMK A01 T00830035  RH  072%=      5-min Rain = 0
KLO1 111514Z 02024G31KT 08/04 A302 RMK A01 T00830036  RH  072%=      5-min Rain = 0
KLO1 111515Z 02026G31KT 08/03 A302 RMK A01 T00820032  RH  071%=      5-min Rain = 0
KLO1 111516Z 01023G31KT 08/03 A302 RMK A01 T00810033  RH  072%=      5-min Rain = 0
KLO1 111517Z 02028KT 08/03 A302 RMK A01 T00810032  RH  071%=      5-min Rain = 0
KLO1 111518Z 02022KT 08/03 A302 RMK A01 T00790030  RH  071%=      5-min Rain = 0
KLO1 111519Z 02024G29KT 08/03 A302 RMK A01 T00790031  RH  072%=      5-min Rain = 0
KLO1 111520Z 02027KT 08/03 A3021 RMK A01 T00780029  RH  071%=      5-min Rain = 0
KLO1 111521Z 02028KT 08/03 A3021 RMK A01 T00770026  RH  071%=      5-min Rain = 0
KLO1 111522Z 02027G32KT 08/03 A3021 RMK A01 T00750026  RH  071%=      5-min Rain = 0
KLO1 111523Z 01025G30KT 08/03 A3021 RMK A01 T00750026  RH  071%=      5-min Rain = 0
KLO1 111524Z 02025KT 07/02 A3021 RMK A01 T00730024  RH  071%=      5-min Rain = 0
KLO1 111525Z 03028KT 07/02 A3021 RMK A01 T00720024  RH  071%=      5-min Rain = 0
KLO1 111526Z 02025KT 07/02 A3021 RMK A01 T00700023  RH  072%=      5-min Rain = 0
KLO1 111527Z 02025KT 07/02 A3021 RMK A01 T00700023  RH  072%=      5-min Rain = 0
KLO1 111528Z 02023G28KT 07/02 A3022 RMK A01 T00690023  RH  072%=      5-min Rain = 0
KLO1 111529Z 02025KT 07/02 A3022 RMK A01 T00680022  RH  072%=      5-min Rain = 0
KLO1 111530Z 01023G28KT 07/02 A3022 RMK A01 T00670021  RH  073%=      5-min Rain = 0
KLO1 111531Z 02027G32KT 07/02 A3022 RMK A01 T00650021  RH  073%=      5-min Rain = 0
KLO1 111532Z 01028KT 06/02 A3022 RMK A01 T00640019  RH  073%=      5-min Rain = 0
KLO1 111533Z 02028G33KT 06/02 A3022 RMK A01 T00620018  RH  073%=      5-min Rain = 0
KLO1 111534Z 02024KT 06/02 A3022 RMK A01 T00610018  RH  074%=      5-min Rain = 0
KLO1 111535Z 02025G32KT 06/02 A3022 RMK A01 T00600018  RH  074%=      5-min Rain = 0
KLO1 111536Z 03026KT 06/02 A3023 RMK A01 T00590017  RH  075%=      5-min Rain = 0
KLO1 111537Z 02023KT 06/02 A3023 RMK A01 T00580017  RH  075%=      5-min Rain = 0
KLO1 111538Z 02024G31KT 06/02 A3023 RMK A01 T00580018  RH  076%=      5-min Rain = 0
KLO1 111539Z 02028KT 06/02 A3023 RMK A01 T00580018  RH  076%=      5-min Rain = 0
KLO1 111540Z 02025G30KT 06/02 A3023 RMK A01 T00570017  RH  076%=      5-min Rain = 0
KLO1 111541Z 01027KT 06/02 A3023 RMK A01 T00560016  RH  076%=      5-min Rain = 0
KLO1 111542Z 02024KT 06/02 A3023 RMK A01 T00550016  RH  076%=      5-min Rain = 0
KLO1 111543Z 02023G31KT 06/02 A3023 RMK A01 T00550017  RH  076%=      5-min Rain = 0
KLO1 111544Z 02025G30KT 06/02 A3023 RMK A01 T00550017  RH  076%=      5-min Rain = 0
KLO1 111545Z 02030G35KT 05/02 A3023 RMK A01 T00540015  RH  076%=      5-min Rain = 0
KLO1 111546Z 02030G35KT 05/01 A3024 RMK A01 T00520013  RH  076%=      5-min Rain = 0
KLO1 111547Z 02026G31KT 05/01 A3024 RMK A01 T00510013  RH  076%=      5-min Rain = 0
KLO1 111548Z 02028G34KT 05/01 A3024 RMK A01 T00510013  RH  076%=      5-min Rain = 0
KLO1 111549Z 02029G34KT 05/01 A3024 RMK A01 T00500012  RH  076%=      5-min Rain = 0
KLO1 111550Z 02029KT 05/01 A3024 RMK A01 T00490011  RH  076%=      5-min Rain = 0
KLO1 111551Z 02029G34KT 05/01 A3024 RMK A01 T00480010  RH  077%=      5-min Rain = 0
KLO1 111552Z 02033KT 05/01 A3025 RMK A01 T00470010  RH  077%=      5-min Rain = 0
KLO1 111553Z 02033KT 05/01 A3025 RMK A01 T00460009  RH  077%=      5-min Rain = 0
KLO1 111554Z 02029G36KT 05/01 A3025 RMK A01 T00450009  RH  077%=      5-min Rain = 0
KLO1 111555Z 02029G34KT 05/01 A3025 RMK A01 T00450010  RH  078%=      5-min Rain = 0
KLO1 111556Z 02027KT 05/01 A3025 RMK A01 T00450009  RH  078%=      5-min Rain = 0
KLO1 111557Z 02025KT 05/01 A3025 RMK A01 T00450009  RH  078%=      5-min Rain = 0
KLO1 111558Z 02023KT 05/01 A3025 RMK A01 T00450009  RH  077%=      5-min Rain = 0
KLO1 111559Z 01024G33KT 05/01 A3026 RMK A01 T00450009  RH  078%=      5-min Rain = 0
KLO1 111600Z 02028KT 05/01 A3026 RMK A01 T00450009  RH  077%=      5-min Rain = 0
KLO1 111601Z 02028KT 05/01 A3026 RMK A01 T00450008  RH  077%=      5-min Rain = 0
KLO1 111602Z 01022G27KT 04/01 A3026 RMK A01 T00440008  RH  077%=      5-min Rain = 0
KLO1 111603Z 01024KT 04/01 A3026 RMK A01 T00440008  RH  078%=      5-min Rain = 0
KLO1 111604Z 01024KT 04/01 A3026 RMK A01 T00440009  RH  078%=      5-min Rain = 0
KLO1 111605Z 01024G29KT 04/01 A3026 RMK A01 T00440008  RH  077%=      5-min Rain = 0
KLO1 111606Z 02023KT 04/01 A3026 RMK A01 T00440008  RH  077%=      5-min Rain = 0
KLO1 111607Z 02019KT 04/01 A3026 RMK A01 T00440009  RH  078%=      5-min Rain = 0
KLO1 111608Z 02022G27KT 05/01 A3026 RMK A01 T00450010  RH  078%=      5-min Rain = 0
KLO1 111609Z 01023KT 04/01 A3026 RMK A01 T00440008  RH  077%=      5-min Rain = 0
KLO1 111610Z 02025KT 04/01 A3027 RMK A01 T00440007  RH  077%=      5-min Rain = 0
KLO1 111611Z 03026G31KT 04/01 A3027 RMK A01 T00430006  RH  077%=      5-min Rain = 0
KLO1 111612Z 02025G30KT 04/01 A3027 RMK A01 T00430005  RH  077%=      5-min Rain = 0
KLO1 111613Z 02025KT 04/01 A3027 RMK A01 T00420005  RH  077%=      5-min Rain = 0
KLO1 111614Z 03025G30KT 04/01 A3028 RMK A01 T00420005  RH  077%=      5-min Rain = 0
KLO1 111615Z 02029G34KT 04/01 A3028 RMK A01 T00420005  RH  077%=      5-min Rain = 0
KLO1 111616Z 02029KT 04/00 A3028 RMK A01 T00410003  RH  076%=      5-min Rain = 0
KLO1 111617Z 02025KT 04/00 A3028 RMK A01 T00410003  RH  076%=      5-min Rain = 0
KLO1 111618Z 02022KT 04/00 A3028 RMK A01 T00410003  RH  076%=      5-min Rain = 0
KLO1 111619Z 02025G31KT 04/00 A3028 RMK A01 T00410003  RH  076%=      5-min Rain = 0
KLO1 111620Z 02031KT 04/00 A3028 RMK A01 T00410002  RH  076%=      5-min Rain = 0
KLO1 111621Z 02026G33KT 04/00 A3028 RMK A01 T00410001  RH  076%=      5-min Rain = 0
KLO1 111622Z 02026KT 04/00 A3028 RMK A01 T00400002  RH  076%=      5-min Rain = 0
KLO1 111623Z 02025KT 04/00 A3029 RMK A01 T00400002  RH  076%=      5-min Rain = 0
KLO1 111624Z 02022G28KT 04/00 A3029 RMK A01 T00400002  RH  076%=      5-min Rain = 0
KLO1 111625Z 03023KT 04/00 A3029 RMK A01 T00400003  RH  077%=      5-min Rain = 0
KLO1 111626Z 02025G30KT 04/00 A3029 RMK A01 T00400002  RH  076%=      5-min Rain = 0
KLO1 111627Z 03028KT 04/00 A3029 RMK A01 T00400001  RH  076%=      5-min Rain = 0
KLO1 111628Z 02022KT 04/00 A3029 RMK A01 T003900-0  RH  076%=      5-min Rain = 0
KLO1 111629Z 02022KT 04/00 A3029 RMK A01 T00390000  RH  076%=      5-min Rain = 0
KLO1 111630Z 01023G28KT 04/00 A3029 RMK A01 T00390001  RH  076%=      5-min Rain = 0
KLO1 111631Z 02027KT 04/00 A303 RMK A01 T003900-0  RH  076%=      5-min Rain = 0
KLO1 111632Z 01028G33KT 04/M00 A303 RMK A01 T00391001  RH  075%=      5-min Rain = 0
KLO1 111633Z 02029KT 04/M00 A303 RMK A01 T00381002  RH  075%=      5-min Rain = 0
KLO1 111634Z 02027KT 04/M00 A303 RMK A01 T00381003  RH  075%=      5-min Rain = 0
KLO1 111635Z 02023G30KT 04/M00 A303 RMK A01 T00371003  RH  075%=      5-min Rain = 0
KLO1 111636Z 02024G29KT 04/M00 A303 RMK A01 T00371002  RH  076%=      5-min Rain = 0
KLO1 111637Z 01024KT 04/M00 A303 RMK A01 T00381003  RH  075%=      5-min Rain = 0
KLO1 111638Z 01021KT 04/M00 A3031 RMK A01 T00381003  RH  075%=      5-min Rain = 0
KLO1 111639Z 01024G29KT 04/M00 A3031 RMK A01 T00381002  RH  075%=      5-min Rain = 0
KLO1 111640Z 02026G31KT 04/M00 A3031 RMK A01 T00381002  RH  075%=      5-min Rain = 0
KLO1 111641Z 02024G30KT 04/M00 A3031 RMK A01 T00371004  RH  075%=      5-min Rain = 0
KLO1 111642Z 02027G34KT 04/M00 A3031 RMK A01 T00371004  RH  075%=      5-min Rain = 0
KLO1 111643Z 02024G29KT 04/M00 A3031 RMK A01 T00371004  RH  075%=      5-min Rain = 0
KLO1 111644Z 02021KT 04/M00 A3031 RMK A01 T00371004  RH  075%=      5-min Rain = 0
KLO1 111645Z 01020G26KT 04/M00 A3031 RMK A01 T00371003  RH  075%=      5-min Rain = 0
KLO1 111646Z 02021G26KT 04/M00 A3031 RMK A01 T00371003  RH  075%=      5-min Rain = 0
KLO1 111647Z 02021KT 04/M00 A3031 RMK A01 T00371003  RH  075%=      5-min Rain = 0
KLO1 111648Z 02025G30KT 04/M00 A3031 RMK A01 T00371004  RH  075%=      5-min Rain = 0
KLO1 111649Z 02024G30KT 04/M01 A3031 RMK A01 T00371005  RH  074%=      5-min Rain = 0
KLO1 111650Z 02024G30KT 04/M01 A3032 RMK A01 T00361006  RH  074%=      5-min Rain = 0
KLO1 111651Z 02022G31KT 04/M01 A3032 RMK A01 T00361006  RH  074%=      5-min Rain = 0
KLO1 111652Z 02025G32KT 04/M01 A3032 RMK A01 T00361005  RH  075%=      5-min Rain = 0
KLO1 111653Z 02027G33KT 04/M01 A3032 RMK A01 T00351007  RH  074%=      5-min Rain = 0
KLO1 111654Z 02020G25KT 04/M01 A3032 RMK A01 T00351006  RH  074%=      5-min Rain = 0
KLO1 111655Z 01021KT 04/M01 A3032 RMK A01 T00351005  RH  075%=      5-min Rain = 0
KLO1 111656Z 02020G25KT 04/M01 A3032 RMK A01 T00351005  RH  075%=      5-min Rain = 0
KLO1 111657Z 01021KT 04/M00 A3032 RMK A01 T00361004  RH  075%=      5-min Rain = 0
KLO1 111658Z 02023KT 04/M01 A3032 RMK A01 T00361005  RH  075%=      5-min Rain = 0
KLO1 111659Z 02022KT 04/M01 A3032 RMK A01 T00351006  RH  074%=      5-min Rain = 0
KLO1 111700Z 02022G27KT 04/M01 A3032 RMK A01 T00351006  RH  075%=      5-min Rain = 0
KLO1 111701Z 02025KT 04/M01 A3032 RMK A01 T00351006  RH  074%=      5-min Rain = 0
KLO1 111702Z 02023KT 03/M01 A3032 RMK A01 T00341007  RH  074%=      5-min Rain = 0
KLO1 111703Z 02019G25KT 03/M01 A3032 RMK A01 T00341006  RH  075%=      5-min Rain = 0
KLO1 111704Z 01023KT 04/M01 A3032 RMK A01 T00351005  RH  075%=      5-min Rain = 0
KLO1 111705Z 01024KT 03/M01 A3032 RMK A01 T00341006  RH  075%=      5-min Rain = 0
KLO1 111706Z 01027G32KT 03/M01 A3033 RMK A01 T00341007  RH  075%=      5-min Rain = 0
KLO1 111707Z 01024G29KT 03/M01 A3033 RMK A01 T00331008  RH  074%=      5-min Rain = 0
KLO1 111708Z 01023G29KT 03/M01 A3033 RMK A01 T00331008  RH  075%=      5-min Rain = 0
KLO1 111709Z 01021KT 03/M01 A3033 RMK A01 T00331007  RH  075%=      5-min Rain = 0
KLO1 111710Z 01025G30KT 03/M01 A3033 RMK A01 T00331006  RH  075%=      5-min Rain = 0
KLO1 111711Z 01025KT 03/M01 A3033 RMK A01 T00331007  RH  075%=      5-min Rain = 0
KLO1 111712Z 01021KT 03/M01 A3033 RMK A01 T00331007  RH  075%=      5-min Rain = 0
KLO1 111713Z 02024G29KT 03/M01 A3033 RMK A01 T00331005  RH  076%=      5-min Rain = 0
KLO1 111714Z 03023KT 03/M01 A3033 RMK A01 T00341006  RH  075%=      5-min Rain = 0
KLO1 111715Z 02020KT 03/M01 A3033 RMK A01 T00331006  RH  076%=      5-min Rain = 0
KLO1 111716Z 02026KT 03/M01 A3033 RMK A01 T00331005  RH  076%=      5-min Rain = 0
KLO1 111717Z 02024KT 03/M01 A3033 RMK A01 T00331007  RH  075%=      5-min Rain = 0
KLO1 111718Z 02028G34KT 03/M01 A3033 RMK A01 T00311009  RH  075%=      5-min Rain = 0
KLO1 111719Z 02030KT 03/M01 A3033 RMK A01 T00291011  RH  075%=      5-min Rain = 0
KLO1 111720Z 02027KT 03/M01 A3033 RMK A01 T00281012  RH  075%=      5-min Rain = 0
KLO1 111721Z 02025G30KT 03/M01 A3034 RMK A01 T00271012  RH  075%=      5-min Rain = 0
KLO1 111722Z 01023G29KT 03/M01 A3034 RMK A01 T00271011  RH  076%=      5-min Rain = 0
KLO1 111723Z 01025KT 03/M01 A3034 RMK A01 T00271012  RH  076%=      5-min Rain = 0
KLO1 111724Z 01023G29KT 03/M01 A3034 RMK A01 T00261012  RH  076%=      5-min Rain = 0
KLO1 111725Z 01022G30KT 03/M01 A3034 RMK A01 T00261011  RH  076%=      5-min Rain = 0
KLO1 111726Z 02026G31KT 03/M01 A3034 RMK A01 T00261012  RH  076%=      5-min Rain = 0
KLO1 111727Z 01025KT 03/M01 A3034 RMK A01 T00261012  RH  076%=      5-min Rain = 0
KLO1 111728Z 01025G30KT 03/M01 A3034 RMK A01 T00251013  RH  076%=      5-min Rain = 0
KLO1 111729Z 01024KT 03/M01 A3034 RMK A01 T00251013  RH  076%=      5-min Rain = 0
KLO1 111730Z 00027KT 02/M01 A3034 RMK A01 T00241014  RH  076%=      5-min Rain = 0
KLO1 111731Z 00025G30KT 02/M02 A3034 RMK A01 T00231016  RH  076%=      5-min Rain = 0
KLO1 111732Z 01025KT 02/M02 A3034 RMK A01 T00231016  RH  076%=      5-min Rain = 0
KLO1 111733Z 01019G25KT 02/M01 A3035 RMK A01 T00231014  RH  077%=      5-min Rain = 0
KLO1 111734Z 02026KT 03/M01 A3035 RMK A01 T00251011  RH  077%=      5-min Rain = 0
KLO1 111735Z 02027KT 03/M01 A3035 RMK A01 T00251013  RH  076%=      5-min Rain = 0
KLO1 111736Z 01025KT 02/M01 A3035 RMK A01 T00241014  RH  076%=      5-min Rain = 0
KLO1 111737Z 01024G29KT 02/M02 A3035 RMK A01 T00231015  RH  076%=      5-min Rain = 0
KLO1 111738Z 01022KT 02/M02 A3035 RMK A01 T00231015  RH  076%=      5-min Rain = 0
KLO1 111739Z 00024KT 02/M02 A3035 RMK A01 T00231015  RH  076%=      5-min Rain = 0
KLO1 111740Z 01021KT 02/M02 A3035 RMK A01 T00231016  RH  076%=      5-min Rain = 0
KLO1 111741Z 02024G29KT 02/M02 A3035 RMK A01 T00231015  RH  076%=      5-min Rain = 0
KLO1 111742Z 02029KT 02/M02 A3035 RMK A01 T00241015  RH  076%=      5-min Rain = 0
KLO1 111743Z 02025G30KT 02/M02 A3035 RMK A01 T00231016  RH  076%=      5-min Rain = 0
KLO1 111744Z 02024KT 02/M02 A3035 RMK A01 T00231016  RH  076%=      5-min Rain = 0
KLO1 111745Z 02020G25KT 02/M02 A3035 RMK A01 T00221015  RH  076%=      5-min Rain = 0
KLO1 111746Z 02024G30KT 02/M01 A3035 RMK A01 T00231014  RH  077%=      5-min Rain = 0
KLO1 111747Z 02023G28KT 02/M02 A3035 RMK A01 T00231016  RH  076%=      5-min Rain = 0
KLO1 111748Z 01023KT 02/M02 A3035 RMK A01 T00221015  RH  076%=      5-min Rain = 0
KLO1 111749Z 02025KT 02/M02 A3035 RMK A01 T00211017  RH  076%=      5-min Rain = 0
KLO1 111750Z 02026KT 02/M02 A3035 RMK A01 T00211017  RH  076%=      5-min Rain = 0
KLO1 111751Z 01021G27KT 02/M02 A3035 RMK A01 T00201019  RH  076%=      5-min Rain = 0
KLO1 111752Z 01024G29KT 02/M02 A3035 RMK A01 T00191019  RH  076%=      5-min Rain = 0
KLO1 111753Z 01023KT 02/M02 A3036 RMK A01 T00181020  RH  076%=      5-min Rain = 0
KLO1 111754Z 02024KT 02/M02 A3036 RMK A01 T00181019  RH  076%=      5-min Rain = 0
KLO1 111755Z 01023G28KT 02/M02 A3036 RMK A01 T00191019  RH  076%=      5-min Rain = 0
KLO1 111756Z 01022KT 02/M02 A3036 RMK A01 T00181020  RH  076%=      5-min Rain = 0
KLO1 111757Z 00023G28KT 02/M02 A3036 RMK A01 T00181019  RH  076%=      5-min Rain = 0
KLO1 111758Z 01020G26KT 02/M02 A3036 RMK A01 T00181020  RH  076%=      5-min Rain = 0
KLO1 111759Z 01022KT 02/M02 A3036 RMK A01 T00171019  RH  077%=      5-min Rain = 0
KLO1 111800Z 01018G24KT 02/M02 A3036 RMK A01 T00181019  RH  076%=      5-min Rain = 0
KLO1 111801Z 00021G29KT 02/M02 A3036 RMK A01 T00181020  RH  076%=      5-min Rain = 0
KLO1 111802Z 00026G31KT 02/M02 A3036 RMK A01 T00171023  RH  075%=      5-min Rain = 0
KLO1 111803Z 01025KT 02/M03 A3036 RMK A01 T00161025  RH  074%=      5-min Rain = 0
KLO1 111804Z 01023G28KT 02/M03 A3037 RMK A01 T00151025  RH  075%=      5-min Rain = 0
KLO1 111805Z 02023KT 02/M02 A3037 RMK A01 T00151024  RH  075%=      5-min Rain = 0
KLO1 111806Z 01022G27KT 02/M02 A3037 RMK A01 T00151024  RH  075%=      5-min Rain = 0
KLO1 111807Z 01019G25KT 02/M03 A3037 RMK A01 T00151025  RH  075%=      5-min Rain = 0
KLO1 111808Z 00023KT 01/M03 A3037 RMK A01 T00141025  RH  075%=      5-min Rain = 0
KLO1 111809Z 01023KT 01/M03 A3037 RMK A01 T00131027  RH  074%=      5-min Rain = 0
KLO1 111810Z 01023G29KT 01/M03 A3037 RMK A01 T00121027  RH  075%=      5-min Rain = 0
KLO1 111811Z 00024G29KT 01/M03 A3037 RMK A01 T00121027  RH  075%=      5-min Rain = 0
KLO1 111812Z 01024G30KT 01/M03 A3037 RMK A01 T00121027  RH  075%=      5-min Rain = 0
KLO1 111813Z 01021KT 01/M03 A3037 RMK A01 T00121026  RH  076%=      5-min Rain = 0
KLO1 111814Z 01022KT 01/M03 A3037 RMK A01 T00131025  RH  076%=      5-min Rain = 0
KLO1 111815Z 00024G29KT 01/M03 A3037 RMK A01 T00121027  RH  075%=      5-min Rain = 0
KLO1 111816Z 01021KT 01/M03 A3037 RMK A01 T00111029  RH  075%=      5-min Rain = 0
KLO1 111817Z 01023KT 01/M03 A3037 RMK A01 T00111028  RH  076%=      5-min Rain = 0
KLO1 111818Z 01023G30KT 01/M03 A3037 RMK A01 T00111028  RH  075%=      5-min Rain = 0
KLO1 111819Z 01025KT 01/M03 A3037 RMK A01 T00111027  RH  076%=      5-min Rain = 0
KLO1 111820Z 01023G30KT 01/M03 A3037 RMK A01 T00121026  RH  076%=      5-min Rain = 0
KLO1 111821Z 02023KT 01/M03 A3037 RMK A01 T00121026  RH  076%=      5-min Rain = 0
KLO1 111822Z 01025KT 01/M03 A3037 RMK A01 T00121027  RH  075%=      5-min Rain = 0
KLO1 111823Z 02023KT 01/M03 A3037 RMK A01 T00121027  RH  075%=      5-min Rain = 0
KLO1 111824Z 02022KT 01/M03 A3037 RMK A01 T00121026  RH  076%=      5-min Rain = 0
KLO1 111825Z 02022KT 01/M03 A3037 RMK A01 T00121027  RH  075%=      5-min Rain = 0
KLO1 111826Z 02023G28KT 01/M03 A3037 RMK A01 T00121027  RH  075%=      5-min Rain = 0
KLO1 111827Z 01020KT 01/M03 A3037 RMK A01 T00121027  RH  075%=      5-min Rain = 0
KLO1 111828Z 01020G27KT 01/M03 A3037 RMK A01 T00121027  RH  075%=      5-min Rain = 0
KLO1 111829Z 01022KT 01/M03 A3037 RMK A01 T00121027  RH  075%=      5-min Rain = 0
KLO1 111830Z 01021G26KT 01/M03 A3038 RMK A01 T00121028  RH  075%=      5-min Rain = 0
KLO1 111831Z 02023G29KT 01/M03 A3038 RMK A01 T00121028  RH  074%=      5-min Rain = 0
KLO1 111832Z 02022G28KT 01/M03 A3038 RMK A01 T00111029  RH  074%=      5-min Rain = 0
KLO1 111833Z 01023G31KT 01/M03 A3038 RMK A01 T00111029  RH  074%=      5-min Rain = 0
KLO1 111834Z 01026KT 01/M03 A3038 RMK A01 T00111030  RH  074%=      5-min Rain = 0
KLO1 111835Z 01023KT 01/M03 A3038 RMK A01 T00101031  RH  074%=      5-min Rain = 0
KLO1 111836Z 01020KT 01/M03 A3038 RMK A01 T00101030  RH  075%=      5-min Rain = 0
KLO1 111837Z 01020KT 01/M03 A3038 RMK A01 T00091030  RH  075%=      5-min Rain = 0
KLO1 111838Z 01021KT 01/M03 A3038 RMK A01 T00101029  RH  075%=      5-min Rain = 0
KLO1 111839Z 01023G28KT 01/M03 A3038 RMK A01 T00091030  RH  075%=      5-min Rain = 0
KLO1 111840Z 00023KT 01/M03 A3038 RMK A01 T00081033  RH  074%=      5-min Rain = 0
KLO1 111841Z 01021KT 01/M03 A3038 RMK A01 T00061034  RH  074%=      5-min Rain = 0
KLO1 111842Z 01021G26KT 01/M03 A3038 RMK A01 T00061034  RH  075%=      5-min Rain = 0
KLO1 111843Z 00021G26KT 01/M04 A3038 RMK A01 T00051035  RH  074%=      5-min Rain = 0
KLO1 111844Z 00020G27KT 00/M04 A3038 RMK A01 T00041036  RH  074%=      5-min Rain = 0
KLO1 111845Z 01016KT 01/M04 A3039 RMK A01 T00051035  RH  075%=      5-min Rain = 0
KLO1 111846Z 01018KT 01/M03 A3038 RMK A01 T00061033  RH  075%=      5-min Rain = 0
KLO1 111847Z 01019G25KT 01/M03 A3038 RMK A01 T00061034  RH  075%=      5-min Rain = 0
KLO1 111848Z 01019G25KT 01/M03 A3038 RMK A01 T00061034  RH  075%=      5-min Rain = 0
KLO1 111849Z 01021KT 01/M03 A3038 RMK A01 T00061033  RH  075%=      5-min Rain = 0
KLO1 111850Z 01020KT 01/M03 A3038 RMK A01 T00061033  RH  075%=      5-min Rain = 0
KLO1 111851Z 02022KT 01/M03 A3038 RMK A01 T00061033  RH  075%=      5-min Rain = 0
KLO1 111852Z 01019KT 01/M03 A3039 RMK A01 T00061034  RH  075%=      5-min Rain = 0
KLO1 111853Z 01024G33KT 01/M03 A3038 RMK A01 T00061033  RH  075%=      5-min Rain = 0
KLO1 111854Z 01025KT 01/M03 A3039 RMK A01 T00061034  RH  075%=      5-min Rain = 0
KLO1 111855Z 01025KT 01/M04 A3038 RMK A01 T00051035  RH  075%=      5-min Rain = 0
KLO1 111856Z 01026KT 00/M04 A3039 RMK A01 T00041035  RH  075%=      5-min Rain = 0
KLO1 111857Z 02021KT 00/M04 A3038 RMK A01 T00041036  RH  075%=      5-min Rain = 0
KLO1 111858Z 02025KT 00/M04 A3039 RMK A01 T00041035  RH  075%=      5-min Rain = 0
KLO1 111859Z 02023KT 00/M04 A3039 RMK A01 T00041036  RH  074%=      5-min Rain = 0
KLO1 111900Z 03023KT 01/M04 A3039 RMK A01 T00051035  RH  075%=      5-min Rain = 0
KLO1 111901Z 03022KT 01/M04 A3039 RMK A01 T00051035  RH  074%=      5-min Rain = 0
KLO1 111902Z 02021KT 01/M04 A3039 RMK A01 T00051035  RH  074%=      5-min Rain = 0
KLO1 111903Z 02019KT 01/M04 A3039 RMK A01 T00051035  RH  075%=      5-min Rain = 0
KLO1 111904Z 03020KT 01/M03 A3039 RMK A01 T00061034  RH  074%=      5-min Rain = 0
KLO1 111905Z 02019KT 01/M04 A3039 RMK A01 T00061035  RH  074%=      5-min Rain = 0
KLO1 111906Z 02019KT 01/M03 A3039 RMK A01 T00061034  RH  074%=      5-min Rain = 0
KLO1 111907Z 01016KT 01/M03 A3039 RMK A01 T00061033  RH  075%=      5-min Rain = 0
KLO1 111908Z 01017KT 01/M03 A3039 RMK A01 T00071032  RH  075%=      5-min Rain = 0
KLO1 111909Z 01018KT 01/M03 A3039 RMK A01 T00071034  RH  074%=      5-min Rain = 0
KLO1 111910Z 02018G23KT 01/M03 A3039 RMK A01 T00071033  RH  075%=      5-min Rain = 0
KLO1 111911Z 02020KT 01/M03 A3039 RMK A01 T00071033  RH  074%=      5-min Rain = 0
KLO1 111912Z 01018KT 01/M03 A3039 RMK A01 T00071034  RH  074%=      5-min Rain = 0
KLO1 111913Z 02021KT 01/M03 A3039 RMK A01 T00071033  RH  075%=      5-min Rain = 0
KLO1 111914Z 01021KT 01/M03 A3039 RMK A01 T00071034  RH  074%=      5-min Rain = 0
KLO1 111915Z 02020G25KT 01/M03 A3039 RMK A01 T00071034  RH  074%=      5-min Rain = 0
KLO1 111916Z 02022G27KT 01/M04 A3039 RMK A01 T00071035  RH  074%=      5-min Rain = 0
KLO1 111917Z 02021G26KT 01/M04 A3039 RMK A01 T00061036  RH  073%=      5-min Rain = 0
KLO1 111918Z 01022KT 01/M04 A3039 RMK A01 T00061036  RH  073%=      5-min Rain = 0
KLO1 111919Z 02021KT 01/M04 A3039 RMK A01 T00061037  RH  073%=      5-min Rain = 0
KLO1 111920Z 02024KT 01/M04 A3039 RMK A01 T00061036  RH  074%=      5-min Rain = 0
KLO1 111921Z 02023KT 01/M04 A3039 RMK A01 T00061036  RH  073%=      5-min Rain = 0
KLO1 111922Z 01020G27KT 01/M04 A3039 RMK A01 T00061037  RH  073%=      5-min Rain = 0
KLO1 111923Z 01021KT 01/M04 A3039 RMK A01 T00061037  RH  073%=      5-min Rain = 0
KLO1 111924Z 01020G26KT 01/M04 A304 RMK A01 T00061038  RH  073%=      5-min Rain = 0
KLO1 111925Z 02022KT 01/M04 A304 RMK A01 T00061038  RH  073%=      5-min Rain = 0
KLO1 111926Z 02019KT 01/M04 A304 RMK A01 T00061038  RH  073%=      5-min Rain = 0
KLO1 111927Z 02019G24KT 01/M04 A304 RMK A01 T00061037  RH  073%=      5-min Rain = 0
KLO1 111928Z 03018G24KT 01/M04 A304 RMK A01 T00071036  RH  073%=      5-min Rain = 0
KLO1 111929Z 01019G26KT 01/M04 A304 RMK A01 T00071036  RH  073%=      5-min Rain = 0
KLO1 111930Z 02020G26KT 01/M04 A304 RMK A01 T00061037  RH  072%=      5-min Rain = 0
KLO1 111931Z 02022KT 01/M04 A304 RMK A01 T00051040  RH  072%=      5-min Rain = 0
KLO1 111932Z 02021KT 00/M04 A304 RMK A01 T00041040  RH  072%=      5-min Rain = 0
KLO1 111933Z 01020G26KT 00/M04 A304 RMK A01 T00041039  RH  072%=      5-min Rain = 0
KLO1 111934Z 01020G25KT 01/M04 A304 RMK A01 T00051039  RH  072%=      5-min Rain = 0
KLO1 111935Z 02022G28KT 01/M04 A304 RMK A01 T00051038  RH  073%=      5-min Rain = 0
KLO1 111936Z 02021G26KT 01/M04 A304 RMK A01 T00051039  RH  072%=      5-min Rain = 0
KLO1 111937Z 02019KT 01/M04 A304 RMK A01 T00051039  RH  072%=      5-min Rain = 0
KLO1 111938Z 02018KT 01/M04 A304 RMK A01 T00051039  RH  073%=      5-min Rain = 0
KLO1 111939Z 03023G29KT 01/M04 A304 RMK A01 T00051038  RH  073%=      5-min Rain = 0
KLO1 111940Z 03027G32KT 01/M04 A304 RMK A01 T00051039  RH  072%=      5-min Rain = 0
KLO1 111941Z 03025KT 01/M04 A304 RMK A01 T00051040  RH  072%=      5-min Rain = 0
KLO1 111942Z 03024G30KT 01/M04 A304 RMK A01 T00051040  RH  072%=      5-min Rain = 0
KLO1 111943Z 03023KT 01/M04 A304 RMK A01 T00051040  RH  072%=      5-min Rain = 0
KLO1 111944Z 02019KT 01/M04 A304 RMK A01 T00051040  RH  072%=      5-min Rain = 0
KLO1 111945Z 02022G28KT 01/M04 A304 RMK A01 T00051038  RH  072%=      5-min Rain = 0
KLO1 111946Z 02023KT 01/M04 A304 RMK A01 T00061040  RH  072%=      5-min Rain = 0
KLO1 111947Z 03021KT 01/M04 A304 RMK A01 T00051040  RH  072%=      5-min Rain = 0
KLO1 111948Z 03020G25KT 01/M04 A304 RMK A01 T00051040  RH  072%=      5-min Rain = 0
KLO1 111949Z 03020KT 01/M04 A304 RMK A01 T00051040  RH  072%=      5-min Rain = 0
KLO1 111950Z 02017KT 01/M04 A3041 RMK A01 T00051039  RH  072%=      5-min Rain = 0
KLO1 111951Z 02023KT 01/M04 A3041 RMK A01 T00051039  RH  072%=      5-min Rain = 0
KLO1 111952Z 01025KT 00/M04 A3041 RMK A01 T00041042  RH  071%=      5-min Rain = 0
KLO1 111953Z 01021G26KT 00/M04 A304 RMK A01 T00031043  RH  071%=      5-min Rain = 0
KLO1 111954Z 01023KT 00/M04 A304 RMK A01 T00031042  RH  072%=      5-min Rain = 0
KLO1 111955Z 02024KT 00/M04 A304 RMK A01 T00031042  RH  072%=      5-min Rain = 0
KLO1 111956Z 02023KT 00/M04 A304 RMK A01 T00031042  RH  072%=      5-min Rain = 0
KLO1 111957Z 02025KT 00/M04 A304 RMK A01 T00021043  RH  072%=      5-min Rain = 0
KLO1 111958Z 03026KT 00/M04 A3041 RMK A01 T00021043  RH  072%=      5-min Rain = 0
KLO1 111959Z 02023G28KT 00/M04 A3041 RMK A01 T00021043  RH  072%=      5-min Rain = 0
KLO1 112000Z 02023G29KT 00/M04 A3041 RMK A01 T00031042  RH  072%=      5-min Rain = 0
KLO1 112001Z 02019KT 00/M04 A3041 RMK A01 T00031042  RH  072%=      5-min Rain = 0
KLO1 112002Z 02021KT 00/M04 A3041 RMK A01 T00031041  RH  072%=      5-min Rain = 0
KLO1 112003Z 02022KT 00/M04 A3041 RMK A01 T00031042  RH  072%=      5-min Rain = 0
KLO1 112004Z 03023KT 00/M04 A3041 RMK A01 T00031042  RH  072%=      5-min Rain = 0
KLO1 112005Z 02022KT 00/M04 A3041 RMK A01 T00031042  RH  071%=      5-min Rain = 0
KLO1 112006Z 03022KT 00/M04 A3041 RMK A01 T00031042  RH  072%=      5-min Rain = 0
KLO1 112007Z 02021G26KT 00/M04 A3041 RMK A01 T00031041  RH  072%=      5-min Rain = 0
KLO1 112008Z 03022KT 00/M04 A3041 RMK A01 T00041041  RH  072%=      5-min Rain = 0
KLO1 112009Z 02021KT 00/M04 A3041 RMK A01 T00041041  RH  072%=      5-min Rain = 0
KLO1 112010Z 02025KT 00/M04 A3041 RMK A01 T00041042  RH  071%=      5-min Rain = 0
KLO1 112011Z 03023KT 00/M04 A3041 RMK A01 T00031043  RH  071%=      5-min Rain = 0
KLO1 112012Z 03022KT 00/M04 A3041 RMK A01 T00031043  RH  071%=      5-min Rain = 0
KLO1 112013Z 03023G29KT 00/M04 A3041 RMK A01 T00031042  RH  072%=      5-min Rain = 0
KLO1 112014Z 02022KT 00/M04 A3041 RMK A01 T00031042  RH  072%=      5-min Rain = 0
KLO1 112015Z 02024G29KT 00/M04 A3041 RMK A01 T00041041  RH  072%=      5-min Rain = 0
KLO1 112016Z 02022G27KT 00/M04 A3041 RMK A01 T00031043  RH  071%=      5-min Rain = 0
KLO1 112017Z 02023KT 00/M04 A3041 RMK A01 T00031042  RH  072%=      5-min Rain = 0
KLO1 112018Z 01020G25KT 00/M04 A3041 RMK A01 T00031042  RH  072%=      5-min Rain = 0
KLO1 112019Z 02022KT 00/M04 A3041 RMK A01 T00031041  RH  072%=      5-min Rain = 0
KLO1 112020Z 02020KT 00/M04 A3041 RMK A01 T00031042  RH  072%=      5-min Rain = 0
KLO1 112021Z 02020KT 00/M04 A3041 RMK A01 T00031042  RH  072%=      5-min Rain = 0
KLO1 112022Z 03021G28KT 00/M04 A3042 RMK A01 T00031041  RH  072%=      5-min Rain = 0
KLO1 112023Z 02022KT 00/M04 A3042 RMK A01 T00031042  RH  072%=      5-min Rain = 0
KLO1 112024Z 02018G23KT 00/M04 A3042 RMK A01 T00021043  RH  072%=      5-min Rain = 0
KLO1 112025Z 02020KT 00/M04 A3042 RMK A01 T00031042  RH  072%=      5-min Rain = 0
KLO1 112026Z 03019G24KT 00/M04 A3041 RMK A01 T00031042  RH  072%=      5-min Rain = 0
KLO1 112027Z 02018G25KT 00/M04 A3041 RMK A01 T00041041  RH  072%=      5-min Rain = 0
KLO1 112028Z 02021KT 00/M04 A3041 RMK A01 T00041041  RH  071%=      5-min Rain = 0
KLO1 112029Z 03020KT 00/M04 A3041 RMK A01 T00041042  RH  071%=      5-min Rain = 0
KLO1 112030Z 02022KT 00/M04 A3041 RMK A01 T00041041  RH  072%=      5-min Rain = 0
KLO1 112031Z 03021G27KT 00/M04 A3042 RMK A01 T00041043  RH  071%=      5-min Rain = 0
KLO1 112032Z 03025KT 00/M04 A3042 RMK A01 T00041043  RH  071%=      5-min Rain = 0
KLO1 112033Z 03024G30KT 00/M05 A3042 RMK A01 T00031045  RH  070%=      5-min Rain = 0
KLO1 112034Z 02020KT 00/M04 A3042 RMK A01 T00031044  RH  071%=      5-min Rain = 0
KLO1 112035Z 03019G24KT 00/M04 A3042 RMK A01 T00031044  RH  071%=      5-min Rain = 0
KLO1 112036Z 03019KT 00/M04 A3042 RMK A01 T00041042  RH  071%=      5-min Rain = 0
KLO1 112037Z 03021KT 00/M04 A3042 RMK A01 T00041043  RH  071%=      5-min Rain = 0
KLO1 112038Z 03021KT 00/M04 A3042 RMK A01 T00031044  RH  070%=      5-min Rain = 0
KLO1 112039Z 03023KT 00/M04 A3042 RMK A01 T00031044  RH  071%=      5-min Rain = 0
KLO1 112040Z 03020KT 00/M05 A3042 RMK A01 T00021045  RH  071%=      5-min Rain = 0
KLO1 112041Z 03017KT 00/M04 A3041 RMK A01 T00021044  RH  071%=      5-min Rain = 0
KLO1 112042Z 02017KT 00/M04 A3041 RMK A01 T00031043  RH  071%=      5-min Rain = 0
KLO1 112043Z 03018KT 00/M04 A3042 RMK A01 T00041042  RH  072%=      5-min Rain = 0
KLO1 112044Z 03018KT 00/M04 A3042 RMK A01 T00041042  RH  071%=      5-min Rain = 0
KLO1 112045Z 02017KT 00/M04 A3042 RMK A01 T00041042  RH  071%=      5-min Rain = 0
KLO1 112046Z 03017KT 00/M04 A3042 RMK A01 T00041042  RH  071%=      5-min Rain = 0
KLO1 112047Z 02017KT 00/M04 A3042 RMK A01 T00041041  RH  072%=      5-min Rain = 0
KLO1 112048Z 02017KT 01/M04 A3042 RMK A01 T00051040  RH  072%=      5-min Rain = 0
KLO1 112049Z 02021G26KT 01/M04 A3043 RMK A01 T00051040  RH  072%=      5-min Rain = 0
KLO1 112050Z 02019KT 01/M04 A3043 RMK A01 T00051042  RH  071%=      5-min Rain = 0
KLO1 112051Z 02019KT 01/M04 A3043 RMK A01 T00051041  RH  071%=      5-min Rain = 0
KLO1 112052Z 02021KT 01/M04 A3043 RMK A01 T00051042  RH  071%=      5-min Rain = 0
KLO1 112053Z 02018KT 00/M04 A3043 RMK A01 T00041043  RH  071%=      5-min Rain = 0
KLO1 112054Z 02019KT 00/M04 A3043 RMK A01 T00041042  RH  071%=      5-min Rain = 0
KLO1 112055Z 02016G22KT 01/M04 A3043 RMK A01 T00051041  RH  071%=      5-min Rain = 0
KLO1 112056Z 01015KT 01/M04 A3043 RMK A01 T00051041  RH  071%=      5-min Rain = 0
KLO1 112057Z 02016KT 01/M04 A3043 RMK A01 T00051041  RH  071%=      5-min Rain = 0
KLO1 112058Z 02016G21KT 01/M04 A3043 RMK A01 T00051041  RH  071%=      5-min Rain = 0
KLO1 112059Z 02019KT 00/M04 A3043 RMK A01 T00041042  RH  071%=      5-min Rain = 0
KLO1 112100Z 01017KT 01/M04 A3043 RMK A01 T00051041  RH  071%=      5-min Rain = 0
KLO1 112101Z 01018G23KT 01/M04 A3043 RMK A01 T00051041  RH  071%=      5-min Rain = 0
KLO1 112102Z 01022KT 01/M04 A3043 RMK A01 T00051042  RH  071%=      5-min Rain = 0
KLO1 112103Z 01020KT 00/M04 A3043 RMK A01 T00041043  RH  070%=      5-min Rain = 0
KLO1 112104Z 02020KT 01/M04 A3043 RMK A01 T00051042  RH  071%=      5-min Rain = 0
KLO1 112105Z 02019KT 01/M04 A3043 RMK A01 T00051042  RH  071%=      5-min Rain = 0
KLO1 112106Z 01017G23KT 01/M04 A3043 RMK A01 T00051043  RH  070%=      5-min Rain = 0
KLO1 112107Z 01015KT 01/M04 A3043 RMK A01 T00051042  RH  071%=      5-min Rain = 0
KLO1 112108Z 02016G22KT 01/M04 A3043 RMK A01 T00051042  RH  071%=      5-min Rain = 0
KLO1 112109Z 02020KT 01/M04 A3043 RMK A01 T00061041  RH  071%=      5-min Rain = 0
KLO1 112110Z 01017KT 01/M04 A3043 RMK A01 T00061042  RH  070%=      5-min Rain = 0
KLO1 112111Z 01018KT 01/M04 A3043 RMK A01 T00061042  RH  071%=      5-min Rain = 0
KLO1 112112Z 01019KT 01/M04 A3043 RMK A01 T00051042  RH  070%=      5-min Rain = 0
KLO1 112113Z 01019KT 00/M04 A3043 RMK A01 T00041044  RH  070%=      5-min Rain = 0
KLO1 112114Z 01019G24KT 00/M04 A3043 RMK A01 T00041044  RH  070%=      5-min Rain = 0
KLO1 112115Z 01020KT 00/M04 A3043 RMK A01 T00041044  RH  071%=      5-min Rain = 0
KLO1 112116Z 00019G24KT 00/M05 A3043 RMK A01 T00021046  RH  070%=      5-min Rain = 0
KLO1 112117Z 01017G22KT 00/M05 A3043 RMK A01 T00021046  RH  070%=      5-min Rain = 0
KLO1 112118Z 01020G25KT 00/M04 A3043 RMK A01 T00021044  RH  071%=      5-min Rain = 0
KLO1 112119Z 01021KT 00/M04 A3043 RMK A01 T00021044  RH  071%=      5-min Rain = 0
KLO1 112120Z 01018KT 00/M05 A3043 RMK A01 T00011046  RH  070%=      5-min Rain = 0
KLO1 112121Z 02016KT 00/M05 A3043 RMK A01 T00011046  RH  070%=      5-min Rain = 0
KLO1 112122Z 01022G28KT 00/M05 A3044 RMK A01 T00011045  RH  071%=      5-min Rain = 0
KLO1 112123Z 02021KT 00/M05 A3044 RMK A01 T00021045  RH  071%=      5-min Rain = 0
KLO1 112124Z 00019KT 00/M05 A3044 RMK A01 T00011046  RH  070%=      5-min Rain = 0
KLO1 112125Z 02022KT 00/M05 A3044 RMK A01 T00011046  RH  070%=      5-min Rain = 0
KLO1 112126Z 02018KT 00/M05 A3044 RMK A01 T00011047  RH  070%=      5-min Rain = 0
KLO1 112127Z 02021G26KT 00/M05 A3044 RMK A01 T00011046  RH  071%=      5-min Rain = 0
KLO1 112128Z 01023KT 00/M05 A3044 RMK A01 T00011048  RH  070%=      5-min Rain = 0
KLO1 112129Z 01019KT 00/M05 A3043 RMK A01 T00011048  RH  070%=      5-min Rain = 0
KLO1 112130Z 01018G24KT 00/M05 A3043 RMK A01 T00011047  RH  070%=      5-min Rain = 0
KLO1 112131Z 01016KT 00/M05 A3043 RMK A01 T00021046  RH  070%=      5-min Rain = 0
KLO1 112132Z 02020KT 00/M04 A3044 RMK A01 T00031044  RH  071%=      5-min Rain = 0
KLO1 112133Z 01021KT 00/M05 A3044 RMK A01 T00031046  RH  069%=      5-min Rain = 0
KLO1 112134Z 01020KT 00/M05 A3044 RMK A01 T00021048  RH  069%=      5-min Rain = 0
KLO1 112135Z 02019G24KT 00/M05 A3044 RMK A01 T00011049  RH  069%=      5-min Rain = 0
KLO1 112136Z 01017KT 00/M05 A3044 RMK A01 T00011048  RH  070%=      5-min Rain = 0
KLO1 112137Z 01018KT 00/M05 A3044 RMK A01 T00011048  RH  070%=      5-min Rain = 0
KLO1 112138Z 01016KT 00/M05 A3044 RMK A01 T00011048  RH  070%=      5-min Rain = 0
KLO1 112139Z 02016G22KT 00/M05 A3044 RMK A01 T00011048  RH  070%=      5-min Rain = 0
KLO1 112140Z 02019KT 00/M05 A3044 RMK A01 T00011047  RH  070%=      5-min Rain = 0
KLO1 112141Z 02019KT 00/M05 A3044 RMK A01 T00011048  RH  069%=      5-min Rain = 0
KLO1 112142Z 02019KT 00/M05 A3044 RMK A01 T00011049  RH  069%=      5-min Rain = 0
KLO1 112143Z 02017KT 00/05 A3044 RMK A01 T00000-49  RH  070%=      5-min Rain = 0
KLO1 112144Z 01017G24KT 00/M05 A3044 RMK A01 T00011047  RH  070%=      5-min Rain = 0
KLO1 112145Z 01018KT 00/M05 A3044 RMK A01 T00011048  RH  069%=      5-min Rain = 0
KLO1 112146Z 02019G24KT 00/M05 A3045 RMK A01 T00011048  RH  069%=      5-min Rain = 0
KLO1 112147Z 01020KT 00/M05 A3045 RMK A01 T00011049  RH  069%=      5-min Rain = 0
KLO1 112148Z 01018KT 00/05 A3045 RMK A01 T00000-51  RH  068%=      5-min Rain = 0
KLO1 112149Z 01019KT 00/05 A3045 RMK A01 T00-00-51  RH  069%=      5-min Rain = 0
KLO1 112150Z 02022KT 00/05 A3045 RMK A01 T00-00-52  RH  068%=      5-min Rain = 0
KLO1 112151Z 01017KT 00/05 A3045 RMK A01 T00-00-52  RH  068%=      5-min Rain = 0
KLO1 112152Z 00020KT 00/05 A3045 RMK A01 T00-00-51  RH  069%=      5-min Rain = 0
KLO1 112153Z 01018KT 00/05 A3045 RMK A01 T00-00-53  RH  068%=      5-min Rain = 0
KLO1 112154Z 01016KT 00/05 A3045 RMK A01 T00-00-52  RH  068%=      5-min Rain = 0
KLO1 112155Z 01016G22KT 00/05 A3045 RMK A01 T00-00-52  RH  068%=      5-min Rain = 0
KLO1 112156Z 01016KT 00/05 A3045 RMK A01 T00000-51  RH  068%=      5-min Rain = 0
KLO1 112157Z 02018KT 00/05 A3045 RMK A01 T00000-50  RH  069%=      5-min Rain = 0
KLO1 112158Z 02017KT 00/M05 A3045 RMK A01 T00011050  RH  068%=      5-min Rain = 0
KLO1 112159Z 01015KT 00/M05 A3045 RMK A01 T00011050  RH  069%=      5-min Rain = 0
KLO1 112200Z 01015KT 00/M05 A3045 RMK A01 T00011049  RH  069%=      5-min Rain = 0
KLO1 112201Z 01018KT 00/M05 A3045 RMK A01 T00011048  RH  069%=      5-min Rain = 0
KLO1 112202Z 01017KT 00/M05 A3045 RMK A01 T00011050  RH  068%=      5-min Rain = 0
KLO1 112203Z 00016KT 00/M05 A3045 RMK A01 T00011050  RH  068%=      5-min Rain = 0
KLO1 112204Z 01015KT 00/M05 A3045 RMK A01 T00011050  RH  069%=      5-min Rain = 0
KLO1 112205Z 00015KT 00/M05 A3045 RMK A01 T00011050  RH  069%=      5-min Rain = 0
KLO1 112206Z 00019G25KT 00/M05 A3045 RMK A01 T00011051  RH  068%=      5-min Rain = 0
KLO1 112207Z 01019G25KT 00/05 A3046 RMK A01 T00000-53  RH  067%=      5-min Rain = 0
KLO1 112208Z 01021G26KT M00/M06 A3046 RMK A01 T10011055  RH  067%=      5-min Rain = 0
KLO1 112209Z 01019G24KT M00/M06 A3046 RMK A01 T10021056  RH  067%=      5-min Rain = 0
KLO1 112210Z 01016G21KT M00/M06 A3046 RMK A01 T10021056  RH  067%=      5-min Rain = 0
KLO1 112211Z 01018KT M00/M06 A3046 RMK A01 T10021056  RH  067%=      5-min Rain = 0
KLO1 112212Z 00016G27KT M00/M06 A3047 RMK A01 T10021056  RH  067%=      5-min Rain = 0
KLO1 112213Z 01020G27KT M00/M06 A3047 RMK A01 T10021058  RH  066%=      5-min Rain = 0
KLO1 112214Z 01018KT M00/M06 A3047 RMK A01 T10031058  RH  066%=      5-min Rain = 0
KLO1 112215Z 02020KT M00/M06 A3047 RMK A01 T10021057  RH  067%=      5-min Rain = 0
KLO1 112216Z 02020G25KT M00/M06 A3047 RMK A01 T10021058  RH  066%=      5-min Rain = 0
KLO1 112217Z 02020KT M00/M06 A3047 RMK A01 T10021058  RH  066%=      5-min Rain = 0
KLO1 112218Z 01017KT M00/M06 A3047 RMK A01 T10021060  RH  065%=      5-min Rain = 0
KLO1 112219Z 02020KT M00/M06 A3047 RMK A01 T10021059  RH  065%=      5-min Rain = 0
KLO1 112220Z 01019KT M00/M06 A3047 RMK A01 T10031061  RH  065%=      5-min Rain = 0
KLO1 112221Z 02017KT M00/M06 A3047 RMK A01 T10031061  RH  065%=      5-min Rain = 0
KLO1 112222Z 01018KT M00/M06 A3047 RMK A01 T10031061  RH  065%=      5-min Rain = 0
KLO1 112223Z 02018KT M00/M06 A3047 RMK A01 T10031061  RH  065%=      5-min Rain = 0
KLO1 112224Z 02022KT M00/M06 A3047 RMK A01 T10031061  RH  065%=      5-min Rain = 0
KLO1 112225Z 02017KT M00/M06 A3047 RMK A01 T10031062  RH  065%=      5-min Rain = 0
KLO1 112226Z 02016KT M00/M06 A3047 RMK A01 T10031061  RH  065%=      5-min Rain = 0
KLO1 112227Z 02016KT M00/M06 A3047 RMK A01 T10021060  RH  065%=      5-min Rain = 0
KLO1 112228Z 02014G20KT M00/M06 A3047 RMK A01 T10021059  RH  065%=      5-min Rain = 0
KLO1 112229Z 00017KT M00/M06 A3047 RMK A01 T10011059  RH  065%=      5-min Rain = 0
KLO1 112230Z 01020KT M00/M06 A3048 RMK A01 T10021061  RH  064%=      5-min Rain = 0
KLO1 112231Z 00015KT M00/M06 A3047 RMK A01 T10021063  RH  064%=      5-min Rain = 0
KLO1 112232Z 01018KT M00/M06 A3048 RMK A01 T10031062  RH  064%=      5-min Rain = 0
KLO1 112233Z 01020KT M00/M06 A3048 RMK A01 T10021063  RH  064%=      5-min Rain = 0
KLO1 112234Z 00017KT M00/M06 A3048 RMK A01 T10021064  RH  063%=      5-min Rain = 0
KLO1 112235Z 01017KT M00/M06 A3048 RMK A01 T10031064  RH  063%=      5-min Rain = 0
KLO1 112236Z 01015KT M00/M06 A3048 RMK A01 T10031063  RH  064%=      5-min Rain = 0
KLO1 112237Z 01019KT M00/M06 A3048 RMK A01 T10021061  RH  065%=      5-min Rain = 0
KLO1 112238Z 01016KT M00/M06 A3048 RMK A01 T10011061  RH  064%=      5-min Rain = 0
KLO1 112239Z 01020G25KT M00/M06 A3048 RMK A01 T10011062  RH  064%=      5-min Rain = 0
KLO1 112240Z 01020KT M00/M07 A3048 RMK A01 T10021065  RH  063%=      5-min Rain = 0
KLO1 112241Z 01016KT M00/M07 A3048 RMK A01 T10021066  RH  062%=      5-min Rain = 0
KLO1 112242Z 01019KT M00/M07 A3048 RMK A01 T10021066  RH  062%=      5-min Rain = 0
KLO1 112243Z 01019G24KT M00/M07 A3048 RMK A01 T10021066  RH  062%=      5-min Rain = 0
KLO1 112244Z 01017KT M00/M07 A3049 RMK A01 T10021068  RH  061%=      5-min Rain = 0
KLO1 112245Z 01016G22KT M00/M07 A3048 RMK A01 T10021067  RH  062%=      5-min Rain = 0
KLO1 112246Z 01017KT M00/M07 A3048 RMK A01 T10031068  RH  062%=      5-min Rain = 0
KLO1 112247Z 01017KT M00/M07 A3048 RMK A01 T10031067  RH  062%=      5-min Rain = 0
KLO1 112248Z 01015KT M00/M07 A3048 RMK A01 T10031067  RH  062%=      5-min Rain = 0
KLO1 112249Z 01012KT M00/M07 A3048 RMK A01 T10021066  RH  062%=      5-min Rain = 0
KLO1 112250Z 01015KT M00/M07 A3048 RMK A01 T10021065  RH  063%=      5-min Rain = 0
KLO1 112251Z 01016G21KT M00/M07 A3048 RMK A01 T10021067  RH  062%=      5-min Rain = 0
KLO1 112252Z 01018KT M00/M07 A3048 RMK A01 T10021068  RH  061%=      5-min Rain = 0
KLO1 112253Z 01018G23KT M00/M07 A3048 RMK A01 T10021068  RH  061%=      5-min Rain = 0
KLO1 112254Z 01016KT M00/M07 A3049 RMK A01 T10021067  RH  061%=      5-min Rain = 0
KLO1 112255Z 01018KT M00/M07 A3049 RMK A01 T10021068  RH  061%=      5-min Rain = 0
KLO1 112256Z 01017KT M00/M07 A3049 RMK A01 T10031069  RH  061%=      5-min Rain = 0
KLO1 112257Z 01014G19KT M00/M07 A3049 RMK A01 T10031069  RH  061%=      5-min Rain = 0
KLO1 112258Z 00013KT M00/M07 A3049 RMK A01 T10031069  RH  061%=      5-min Rain = 0
KLO1 112259Z 01019KT M00/M07 A3049 RMK A01 T10021069  RH  061%=      5-min Rain = 0
KLO1 112300Z 01016KT M00/M07 A3049 RMK A01 T10021069  RH  061%=      5-min Rain = 0
KLO1 112301Z 01015KT M00/M07 A3049 RMK A01 T10021069  RH  061%=      5-min Rain = 0
KLO1 112302Z 01014KT M00/M07 A3049 RMK A01 T10021068  RH  061%=      5-min Rain = 0
KLO1 112303Z 01014KT M00/M07 A3049 RMK A01 T10021066  RH  062%=      5-min Rain = 0
KLO1 112304Z 01015KT M00/M07 A3049 RMK A01 T10011067  RH  061%=      5-min Rain = 0
KLO1 112305Z 01015KT M00/M07 A3049 RMK A01 T10011065  RH  062%=      5-min Rain = 0
KLO1 112306Z 01012KT M00/M06 A3049 RMK A01 T10011064  RH  062%=      5-min Rain = 0
KLO1 112307Z 01016KT 00/06 A3049 RMK A01 T00-00-64  RH  062%=      5-min Rain = 0
KLO1 112308Z 01017KT M00/M07 A3049 RMK A01 T10011066  RH  061%=      5-min Rain = 0
KLO1 112309Z 01014KT M00/M07 A3049 RMK A01 T10011068  RH  061%=      5-min Rain = 0
KLO1 112310Z 01016KT M00/M07 A3049 RMK A01 T10011066  RH  061%=      5-min Rain = 0
KLO1 112311Z 01016KT M00/M07 A3049 RMK A01 T10011066  RH  061%=      5-min Rain = 0
KLO1 112312Z 01016KT M00/M07 A3049 RMK A01 T10011065  RH  062%=      5-min Rain = 0
KLO1 112313Z 02016KT M00/M07 A3049 RMK A01 T10011065  RH  062%=      5-min Rain = 0
KLO1 112314Z 01016KT M00/M07 A3049 RMK A01 T10011065  RH  062%=      5-min Rain = 0
KLO1 112315Z 01012KT M00/M07 A3049 RMK A01 T10011065  RH  062%=      5-min Rain = 0
KLO1 112316Z 00014KT 00/06 A3049 RMK A01 T00-00-62  RH  063%=      5-min Rain = 0
KLO1 112317Z 01012KT 00/06 A3049 RMK A01 T00000-64  RH  062%=      5-min Rain = 0
KLO1 112318Z 00015KT 00/06 A305 RMK A01 T00000-64  RH  062%=      5-min Rain = 0
KLO1 112319Z 01013KT 00/07 A305 RMK A01 T00-00-66  RH  061%=      5-min Rain = 0
KLO1 112320Z 01012KT 00/07 A305 RMK A01 T00-00-65  RH  062%=      5-min Rain = 0
KLO1 112321Z 01011KT 00/06 A305 RMK A01 T00-00-64  RH  062%=      5-min Rain = 0
KLO1 112322Z 02014KT 00/06 A305 RMK A01 T00000-62  RH  063%=      5-min Rain = 0
KLO1 112323Z 01015KT 00/06 A305 RMK A01 T00000-62  RH  063%=      5-min Rain = 0
KLO1 112324Z 02017KT 00/06 A305 RMK A01 T00000-63  RH  062%=      5-min Rain = 0
KLO1 112325Z 02014KT 00/06 A305 RMK A01 T00-00-64  RH  062%=      5-min Rain = 0
KLO1 112326Z 02014KT 00/06 A305 RMK A01 T00000-63  RH  062%=      5-min Rain = 0
KLO1 112327Z 02016KT 00/06 A305 RMK A01 T00000-64  RH  062%=      5-min Rain = 0
KLO1 112328Z 02015KT 00/07 A305 RMK A01 T00-00-65  RH  062%=      5-min Rain = 0
KLO1 112329Z 02014KT 00/07 A305 RMK A01 T00-00-65  RH  062%=      5-min Rain = 0
KLO1 112330Z 01013G18KT 00/06 A305 RMK A01 T00-00-64  RH  062%=      5-min Rain = 0
KLO1 112331Z 00016KT M00/M07 A305 RMK A01 T10011066  RH  061%=      5-min Rain = 0
KLO1 112332Z 00015KT M00/M07 A305 RMK A01 T10011069  RH  060%=      5-min Rain = 0
KLO1 112333Z 00015KT M00/M07 A305 RMK A01 T10011070  RH  060%=      5-min Rain = 0
KLO1 112334Z 00015KT M00/M07 A305 RMK A01 T10011070  RH  060%=      5-min Rain = 0
KLO1 112335Z 00014G20KT M00/M07 A305 RMK A01 T10011069  RH  060%=      5-min Rain = 0
KLO1 112336Z 00016KT M00/M07 A305 RMK A01 T10011068  RH  061%=      5-min Rain = 0
KLO1 112337Z 00017KT M00/M07 A305 RMK A01 T10011069  RH  060%=      5-min Rain = 0
KLO1 112338Z 00018KT M00/M07 A305 RMK A01 T10021071  RH  060%=      5-min Rain = 0
KLO1 112339Z 00015KT M00/M07 A305 RMK A01 T10021071  RH  059%=      5-min Rain = 0
KLO1 112340Z 00018G23KT M00/M07 A3051 RMK A01 T10021072  RH  059%=      5-min Rain = 0
KLO1 112341Z 00022KT M00/M08 A305 RMK A01 T10021075  RH  058%=      5-min Rain = 0
KLO1 112342Z 01020G25KT M00/M08 A305 RMK A01 T10021077  RH  057%=      5-min Rain = 0
KLO1 112343Z 01017KT M00/M08 A305 RMK A01 T10021076  RH  057%=      5-min Rain = 0
KLO1 112344Z 02017KT M00/M08 A305 RMK A01 T10021075  RH  058%=      5-min Rain = 0
KLO1 112345Z 01019KT M00/M07 A305 RMK A01 T10011074  RH  058%=      5-min Rain = 0
KLO1 112346Z 01020KT M00/M08 A305 RMK A01 T10011076  RH  057%=      5-min Rain = 0
KLO1 112347Z 02019KT M00/M08 A305 RMK A01 T10011077  RH  057%=      5-min Rain = 0
KLO1 112348Z 01019KT M00/M08 A305 RMK A01 T10011076  RH  057%=      5-min Rain = 0
KLO1 112349Z 02018KT M00/M08 A3051 RMK A01 T10011077  RH  057%=      5-min Rain = 0
KLO1 112350Z 02019KT M00/M08 A3051 RMK A01 T10021078  RH  056%=      5-min Rain = 0
KLO1 112351Z 02019KT M00/M08 A3051 RMK A01 T10021078  RH  056%=      5-min Rain = 0
KLO1 112352Z 02020KT M00/M08 A3051 RMK A01 T10021078  RH  056%=      5-min Rain = 0
KLO1 112353Z 01018KT M00/M08 A3051 RMK A01 T10021079  RH  056%=      5-min Rain = 0
KLO1 112354Z 02021KT M00/M08 A3051 RMK A01 T10021080  RH  056%=      5-min Rain = 0
KLO1 112355Z 02020KT M00/M08 A3051 RMK A01 T10021080  RH  056%=      5-min Rain = 0
KLO1 112356Z 02019KT M00/M08 A3051 RMK A01 T10021080  RH  056%=      5-min Rain = 0
KLO1 112357Z 02016KT M00/M08 A3051 RMK A01 T10021080  RH  056%=      5-min Rain = 0
KLO1 112358Z 02017KT M00/M08 A3051 RMK A01 T10021078  RH  056%=      5-min Rain = 0
KLO1 112359Z 01016KT M00/M08 A3051 RMK A01 T10021078  RH  057%=      5-min Rain = 0
KLO1 120000Z 02014KT M00/M08 A3051 RMK A01 T10011077  RH  057%=      5-min Rain = 0
KLO1 120001Z 01014KT M00/M08 A3051 RMK A01 T10011077  RH  057%=      5-min Rain = 0
KLO1 120002Z 01013KT M00/M08 A3051 RMK A01 T10011076  RH  057%=      5-min Rain = 0
KLO1 120003Z 02016KT M00/M08 A3051 RMK A01 T10011076  RH  057%=      5-min Rain = 0
KLO1 120004Z 02017G22KT M00/M08 A3051 RMK A01 T10011077  RH  056%=      5-min Rain = 0
KLO1 120005Z 02020KT M00/M08 A3051 RMK A01 T10011079  RH  056%=      5-min Rain = 0
KLO1 120006Z 01017KT M00/M08 A3051 RMK A01 T10011080  RH  055%=      5-min Rain = 0
KLO1 120007Z 01014KT M00/M08 A3051 RMK A01 T10011079  RH  056%=      5-min Rain = 0
KLO1 120008Z 01018G24KT M00/M08 A3051 RMK A01 T10011078  RH  056%=      5-min Rain = 0
KLO1 120009Z 02018KT M00/M08 A3051 RMK A01 T10011079  RH  056%=      5-min Rain = 0
KLO1 120010Z 01020KT M00/M08 A3051 RMK A01 T10011080  RH  055%=      5-min Rain = 0
KLO1 120011Z 02020KT M00/M08 A3051 RMK A01 T10011081  RH  055%=      5-min Rain = 0
KLO1 120012Z 01018KT M00/M08 A3051 RMK A01 T10011082  RH  055%=      5-min Rain = 0
KLO1 120013Z 01017KT M00/M08 A3051 RMK A01 T10011081  RH  055%=      5-min Rain = 0
KLO1 120014Z 01018KT M00/M08 A3051 RMK A01 T10011082  RH  055%=      5-min Rain = 0
KLO1 120015Z 01018KT M00/M08 A3051 RMK A01 T10011081  RH  055%=      5-min Rain = 0
KLO1 120016Z 02017KT M00/M08 A3051 RMK A01 T10011081  RH  055%=      5-min Rain = 0
KLO1 120017Z 02016G21KT M00/M08 A3052 RMK A01 T10011081  RH  055%=      5-min Rain = 0
KLO1 120018Z 02017KT M00/M08 A3052 RMK A01 T10011081  RH  055%=      5-min Rain = 0
KLO1 120019Z 01012KT M00/M08 A3052 RMK A01 T10011081  RH  055%=      5-min Rain = 0
KLO1 120020Z 01013KT M00/M08 A3052 RMK A01 T10011079  RH  055%=      5-min Rain = 0
KLO1 120021Z 01013KT M00/M08 A3052 RMK A01 T10011081  RH  055%=      5-min Rain = 0
KLO1 120022Z 02014KT M00/M08 A3052 RMK A01 T10011079  RH  056%=      5-min Rain = 0
KLO1 120023Z 02015KT M00/M08 A3052 RMK A01 T10011078  RH  056%=      5-min Rain = 0
KLO1 120024Z 02015KT 00/08 A3052 RMK A01 T00-00-78  RH  056%=      5-min Rain = 0
KLO1 120025Z 02016KT 00/08 A3052 RMK A01 T00-00-78  RH  056%=      5-min Rain = 0
KLO1 120026Z 01013KT 00/08 A3052 RMK A01 T00-00-78  RH  056%=      5-min Rain = 0
KLO1 120027Z 01013KT 00/08 A3052 RMK A01 T00-00-77  RH  056%=      5-min Rain = 0
KLO1 120028Z 01012KT 00/08 A3052 RMK A01 T00-00-77  RH  056%=      5-min Rain = 0
KLO1 120029Z 01013KT 00/08 A3052 RMK A01 T00-00-77  RH  056%=      5-min Rain = 0
KLO1 120030Z 01012KT 00/08 A3052 RMK A01 T00000-76  RH  057%=      5-min Rain = 0
KLO1 120031Z 01012KT 00/M08 A3052 RMK A01 T00011075  RH  057%=      5-min Rain = 0
KLO1 120032Z 01014KT 00/08 A3052 RMK A01 T00000-76  RH  057%=      5-min Rain = 0
KLO1 120033Z 01012G17KT 00/08 A3052 RMK A01 T00000-78  RH  056%=      5-min Rain = 0
KLO1 120034Z 02012KT 00/M08 A3052 RMK A01 T00011076  RH  056%=      5-min Rain = 0
KLO1 120035Z 01014KT 00/M08 A3052 RMK A01 T00011076  RH  056%=      5-min Rain = 0
KLO1 120036Z 01014KT 00/M08 A3052 RMK A01 T00011078  RH  055%=      5-min Rain = 0
KLO1 120037Z 02015KT 00/M08 A3052 RMK A01 T00011078  RH  055%=      5-min Rain = 0
KLO1 120038Z 02016KT 00/M08 A3052 RMK A01 T00011078  RH  055%=      5-min Rain = 0
KLO1 120039Z 02016KT 00/M08 A3052 RMK A01 T00011079  RH  055%=      5-min Rain = 0
KLO1 120040Z 02016KT 00/M08 A3052 RMK A01 T00011079  RH  055%=      5-min Rain = 0
KLO1 120041Z 02016KT 00/M08 A3052 RMK A01 T00011079  RH  055%=      5-min Rain = 0
KLO1 120042Z 01018KT 00/M08 A3052 RMK A01 T00011080  RH  054%=      5-min Rain = 0
KLO1 120043Z 01018KT 00/M08 A3052 RMK A01 T00011081  RH  054%=      5-min Rain = 0
KLO1 120044Z 02020KT 00/08 A3053 RMK A01 T00000-81  RH  054%=      5-min Rain = 0
KLO1 120045Z 02018KT 00/08 A3053 RMK A01 T00000-83  RH  053%=      5-min Rain = 0
KLO1 120046Z 02021KT 00/08 A3053 RMK A01 T00000-82  RH  054%=      5-min Rain = 0
KLO1 120047Z 02019KT 00/M08 A3053 RMK A01 T00011083  RH  054%=      5-min Rain = 0
KLO1 120048Z 02019KT 00/M08 A3053 RMK A01 T00011082  RH  054%=      5-min Rain = 0
KLO1 120049Z 02019KT 00/08 A3053 RMK A01 T00000-84  RH  053%=      5-min Rain = 0
KLO1 120050Z 01016KT 00/08 A3053 RMK A01 T00000-84  RH  053%=      5-min Rain = 0
KLO1 120051Z 01015KT 00/M08 A3053 RMK A01 T00011081  RH  054%=      5-min Rain = 0
KLO1 120052Z 01016KT 00/M08 A3053 RMK A01 T00011081  RH  054%=      5-min Rain = 0
KLO1 120053Z 02015KT 00/M08 A3053 RMK A01 T00011081  RH  054%=      5-min Rain = 0
KLO1 120054Z 02015KT 00/M08 A3053 RMK A01 T00011080  RH  054%=      5-min Rain = 0
KLO1 120055Z 02015KT 00/M08 A3053 RMK A01 T00011080  RH  054%=      5-min Rain = 0
KLO1 120056Z 01013KT 00/M08 A3052 RMK A01 T00021080  RH  054%=      5-min Rain = 0
KLO1 120057Z 02012KT 00/M08 A3053 RMK A01 T00021078  RH  055%=      5-min Rain = 0
KLO1 120058Z 02013KT 00/M08 A3053 RMK A01 T00021077  RH  055%=      5-min Rain = 0
KLO1 120059Z 02016KT 00/M08 A3053 RMK A01 T00021079  RH  055%=      5-min Rain = 0
KLO1 120100Z 02016KT 00/M08 A3053 RMK A01 T00021079  RH  054%=      5-min Rain = 0
KLO1 120101Z 01016G21KT 00/M08 A3053 RMK A01 T00021078  RH  055%=      5-min Rain = 0
KLO1 120102Z 02017KT 00/M08 A3053 RMK A01 T00021080  RH  054%=      5-min Rain = 0
KLO1 120103Z 02014KT 00/M08 A3053 RMK A01 T00021082  RH  053%=      5-min Rain = 0
KLO1 120104Z 02016KT 00/M08 A3053 RMK A01 T00021080  RH  054%=      5-min Rain = 0
KLO1 120105Z 02017KT 00/M08 A3053 RMK A01 T00021080  RH  054%=      5-min Rain = 0
KLO1 120106Z 02016KT 00/M08 A3053 RMK A01 T00021080  RH  054%=      5-min Rain = 0
KLO1 120107Z 02013KT 00/M08 A3053 RMK A01 T00021080  RH  054%=      5-min Rain = 0
KLO1 120108Z 02014KT 00/M08 A3053 RMK A01 T00021078  RH  055%=      5-min Rain = 0
KLO1 120109Z 02014KT 00/M08 A3053 RMK A01 T00021078  RH  055%=      5-min Rain = 0
KLO1 120110Z 02017KT 00/M08 A3053 RMK A01 T00021080  RH  054%=      5-min Rain = 0
KLO1 120111Z 02019KT 00/M08 A3053 RMK A01 T00021083  RH  053%=      5-min Rain = 0
KLO1 120112Z 02019KT 00/M08 A3053 RMK A01 T00011083  RH  053%=      5-min Rain = 0
KLO1 120113Z 02020KT 00/M08 A3053 RMK A01 T00011084  RH  053%=      5-min Rain = 0
KLO1 120114Z 02019KT 00/M09 A3053 RMK A01 T00011085  RH  052%=      5-min Rain = 0
KLO1 120115Z 02020KT 00/M09 A3054 RMK A01 T00011086  RH  052%=      5-min Rain = 0
KLO1 120116Z 02018KT 00/M09 A3054 RMK A01 T00011085  RH  052%=      5-min Rain = 0
KLO1 120117Z 02021KT 00/M09 A3054 RMK A01 T00011085  RH  052%=      5-min Rain = 0
KLO1 120118Z 02018KT 00/M09 A3054 RMK A01 T00011086  RH  052%=      5-min Rain = 0
KLO1 120119Z 01016KT 00/M09 A3054 RMK A01 T00011085  RH  052%=      5-min Rain = 0
KLO1 120120Z 02016KT 00/M08 A3054 RMK A01 T00011084  RH  053%=      5-min Rain = 0
KLO1 120121Z 02017KT 00/M08 A3054 RMK A01 T00011084  RH  053%=      5-min Rain = 0
KLO1 120122Z 01019KT 00/M08 A3054 RMK A01 T00011084  RH  053%=      5-min Rain = 0
KLO1 120123Z 02018KT 00/M08 A3054 RMK A01 T00011084  RH  053%=      5-min Rain = 0
KLO1 120124Z 01016KT 00/M09 A3054 RMK A01 T00011085  RH  052%=      5-min Rain = 0
KLO1 120125Z 02016KT 00/M08 A3054 RMK A01 T00011084  RH  053%=      5-min Rain = 0
KLO1 120126Z 01013KT 00/M08 A3055 RMK A01 T00011083  RH  053%=      5-min Rain = 0
KLO1 120127Z 01014KT 00/M08 A3055 RMK A01 T00011081  RH  054%=      5-min Rain = 0
KLO1 120128Z 02014KT 00/M08 A3055 RMK A01 T00011082  RH  054%=      5-min Rain = 0
KLO1 120129Z 01016G21KT 00/M08 A3055 RMK A01 T00021083  RH  053%=      5-min Rain = 0
KLO1 120130Z 01016KT 00/M08 A3055 RMK A01 T00011083  RH  053%=      5-min Rain = 0
KLO1 120131Z 01015KT 00/M08 A3055 RMK A01 T00011083  RH  053%=      5-min Rain = 0
KLO1 120132Z 02017KT 00/M08 A3055 RMK A01 T00021084  RH  052%=      5-min Rain = 0
KLO1 120133Z 01013KT 00/M08 A3055 RMK A01 T00011084  RH  053%=      5-min Rain = 0
KLO1 120134Z 02016G21KT 00/M08 A3055 RMK A01 T00011083  RH  053%=      5-min Rain = 0
KLO1 120135Z 01015KT 00/M09 A3055 RMK A01 T00011086  RH  052%=      5-min Rain = 0
KLO1 120136Z 02018KT 00/M09 A3055 RMK A01 T00011086  RH  052%=      5-min Rain = 0
KLO1 120137Z 02015KT 00/M09 A3055 RMK A01 T00011085  RH  052%=      5-min Rain = 0
KLO1 120138Z 01016KT 00/M09 A3055 RMK A01 T00011085  RH  052%=      5-min Rain = 0
KLO1 120139Z 03017KT 00/M09 A3055 RMK A01 T00011087  RH  052%=      5-min Rain = 0
KLO1 120140Z 03020KT 00/M09 A3055 RMK A01 T00011087  RH  051%=      5-min Rain = 0
KLO1 120141Z 02018KT 00/M09 A3055 RMK A01 T00011088  RH  051%=      5-min Rain = 0
KLO1 120142Z 02018KT 00/M09 A3055 RMK A01 T00011088  RH  051%=      5-min Rain = 0
KLO1 120143Z 03018KT 00/M09 A3055 RMK A01 T00011088  RH  051%=      5-min Rain = 0
KLO1 120144Z 02017KT 00/M09 A3055 RMK A01 T00011087  RH  051%=      5-min Rain = 0
KLO1 120145Z 02019KT 00/M09 A3055 RMK A01 T00011088  RH  051%=      5-min Rain = 0
KLO1 120146Z 02015KT 00/M09 A3055 RMK A01 T00011087  RH  051%=      5-min Rain = 0
KLO1 120147Z 02017KT 00/M09 A3055 RMK A01 T00011086  RH  052%=      5-min Rain = 0
KLO1 120148Z 02017KT 00/M09 A3055 RMK A01 T00011087  RH  052%=      5-min Rain = 0
KLO1 120149Z 02015KT 00/M09 A3055 RMK A01 T00011087  RH  052%=      5-min Rain = 0
KLO1 120150Z 02016KT 00/M09 A3056 RMK A01 T00011087  RH  052%=      5-min Rain = 0
KLO1 120151Z 02016KT 00/M09 A3056 RMK A01 T00011088  RH  051%=      5-min Rain = 0
KLO1 120152Z 02016KT 00/M09 A3056 RMK A01 T00011087  RH  052%=      5-min Rain = 0
KLO1 120153Z 03015KT 00/M09 A3056 RMK A01 T00011087  RH  052%=      5-min Rain = 0
KLO1 120154Z 02015KT 00/M09 A3056 RMK A01 T00011086  RH  052%=      5-min Rain = 0
KLO1 120155Z 02015KT 00/09 A3056 RMK A01 T00000-86  RH  052%=      5-min Rain = 0
KLO1 120156Z 01014KT 00/M09 A3056 RMK A01 T00011086  RH  052%=      5-min Rain = 0
KLO1 120157Z 02016KT 00/M09 A3056 RMK A01 T00011086  RH  052%=      5-min Rain = 0
KLO1 120158Z 02015KT 00/M09 A3056 RMK A01 T00011087  RH  052%=      5-min Rain = 0
KLO1 120159Z 02015KT 00/M09 A3056 RMK A01 T00011086  RH  052%=      5-min Rain = 0
KLO1 120200Z 02016G21KT 00/M09 A3056 RMK A01 T00011086  RH  052%=      5-min Rain = 0
KLO1 120201Z 02016KT 00/M09 A3056 RMK A01 T00011086  RH  052%=      5-min Rain = 0
KLO1 120202Z 02016KT 00/M09 A3056 RMK A01 T00011086  RH  052%=      5-min Rain = 0
KLO1 120203Z 02017KT 00/M09 A3056 RMK A01 T00011086  RH  052%=      5-min Rain = 0
KLO1 120204Z 02015KT 00/M09 A3056 RMK A01 T00011086  RH  052%=      5-min Rain = 0
KLO1 120205Z 02017KT 00/M09 A3056 RMK A01 T00011085  RH  052%=      5-min Rain = 0
KLO1 120206Z 02017KT 00/M09 A3056 RMK A01 T00011086  RH  052%=      5-min Rain = 0
KLO1 120207Z 02015KT 00/M09 A3056 RMK A01 T00011086  RH  052%=      5-min Rain = 0
KLO1 120208Z 02015KT 00/M09 A3056 RMK A01 T00011086  RH  052%=      5-min Rain = 0
KLO1 120209Z 01016KT 00/M09 A3056 RMK A01 T00011087  RH  052%=      5-min Rain = 0
KLO1 120210Z 01014KT 00/M09 A3056 RMK A01 T00011087  RH  051%=      5-min Rain = 0
KLO1 120211Z 01018KT 00/M09 A3056 RMK A01 T00011086  RH  052%=      5-min Rain = 0
KLO1 120212Z 02014KT 00/M09 A3056 RMK A01 T00021086  RH  052%=      5-min Rain = 0
KLO1 120213Z 02016KT 00/M08 A3056 RMK A01 T00021084  RH  053%=      5-min Rain = 0
KLO1 120214Z 02015KT 00/M09 A3056 RMK A01 T00021086  RH  052%=      5-min Rain = 0
KLO1 120215Z 02014G19KT 00/M09 A3056 RMK A01 T00021085  RH  052%=      5-min Rain = 0
KLO1 120216Z 01016KT 00/M08 A3056 RMK A01 T00021084  RH  052%=      5-min Rain = 0
KLO1 120217Z 01014KT 00/M09 A3056 RMK A01 T00021087  RH  051%=      5-min Rain = 0
KLO1 120218Z 02012KT 00/M09 A3056 RMK A01 T00021085  RH  052%=      5-min Rain = 0
KLO1 120219Z 01012KT 00/M08 A3056 RMK A01 T00021084  RH  053%=      5-min Rain = 0
KLO1 120220Z 02014KT 00/M08 A3056 RMK A01 T00021083  RH  053%=      5-min Rain = 0
KLO1 120221Z 02015KT 00/M08 A3056 RMK A01 T00021084  RH  052%=      5-min Rain = 0
KLO1 120222Z 02016KT 00/M08 A3056 RMK A01 T00021084  RH  052%=      5-min Rain = 0
KLO1 120223Z 02014KT 00/M09 A3056 RMK A01 T00011085  RH  052%=      5-min Rain = 0
KLO1 120224Z 02015KT 00/M09 A3056 RMK A01 T00011085  RH  052%=      5-min Rain = 0
KLO1 120225Z 02016KT 00/M09 A3056 RMK A01 T00011085  RH  052%=      5-min Rain = 0
KLO1 120226Z 02016KT 00/M09 A3056 RMK A01 T00011086  RH  052%=      5-min Rain = 0
KLO1 120227Z 01017G22KT 00/M09 A3056 RMK A01 T00021086  RH  052%=      5-min Rain = 0
KLO1 120228Z 01017KT 00/M09 A3056 RMK A01 T00021087  RH  051%=      5-min Rain = 0
KLO1 120229Z 01018KT 00/M09 A3056 RMK A01 T00011087  RH  051%=      5-min Rain = 0
KLO1 120230Z 01014G20KT 00/M09 A3056 RMK A01 T00011088  RH  051%=      5-min Rain = 0
KLO1 120231Z 01014G19KT 00/M09 A3056 RMK A01 T00021087  RH  051%=      5-min Rain = 0
KLO1 120232Z 01015KT 00/M09 A3056 RMK A01 T00021087  RH  051%=      5-min Rain = 0
KLO1 120233Z 01014KT 00/M09 A3056 RMK A01 T00021087  RH  051%=      5-min Rain = 0
KLO1 120234Z 02017KT 00/M09 A3056 RMK A01 T00021087  RH  051%=      5-min Rain = 0
KLO1 120235Z 01016G23KT 00/M09 A3056 RMK A01 T00021087  RH  051%=      5-min Rain = 0
KLO1 120236Z 02016KT 00/M09 A3056 RMK A01 T00021089  RH  051%=      5-min Rain = 0
KLO1 120237Z 02016KT 00/M09 A3056 RMK A01 T00021088  RH  051%=      5-min Rain = 0
KLO1 120238Z 02014KT 00/M09 A3056 RMK A01 T00021087  RH  051%=      5-min Rain = 0
KLO1 120239Z 01013G18KT 00/M09 A3056 RMK A01 T00021086  RH  052%=      5-min Rain = 0
KLO1 120240Z 02012KT 00/M09 A3056 RMK A01 T00021085  RH  052%=      5-min Rain = 0
KLO1 120241Z 02010KT 00/M08 A3056 RMK A01 T00021083  RH  053%=      5-min Rain = 0
KLO1 120242Z 01013G18KT 00/M08 A3055 RMK A01 T00021081  RH  053%=      5-min Rain = 0
KLO1 120243Z 01016KT 00/M08 A3056 RMK A01 T00021084  RH  052%=      5-min Rain = 0
KLO1 120244Z 02014KT 00/M09 A3056 RMK A01 T00031085  RH  052%=      5-min Rain = 0
KLO1 120245Z 02018KT 00/M09 A3056 RMK A01 T00021086  RH  052%=      5-min Rain = 0
KLO1 120246Z 02017KT 00/M09 A3056 RMK A01 T00021087  RH  051%=      5-min Rain = 0
KLO1 120247Z 02018KT 00/M09 A3056 RMK A01 T00021087  RH  051%=      5-min Rain = 0
KLO1 120248Z 02016KT 00/M09 A3056 RMK A01 T00011088  RH  051%=      5-min Rain = 0
KLO1 120249Z 01018KT 00/M09 A3056 RMK A01 T00011087  RH  051%=      5-min Rain = 0
KLO1 120250Z 02018KT 00/M09 A3056 RMK A01 T00011088  RH  051%=      5-min Rain = 0
KLO1 120251Z 01015G20KT 00/M09 A3056 RMK A01 T00021089  RH  051%=      5-min Rain = 0
KLO1 120252Z 02016G22KT 00/M09 A3056 RMK A01 T00021087  RH  052%=      5-min Rain = 0
KLO1 120253Z 01017KT 00/M09 A3056 RMK A01 T00011088  RH  051%=      5-min Rain = 0
KLO1 120254Z 02019KT 00/M09 A3056 RMK A01 T00011089  RH  051%=      5-min Rain = 0
KLO1 120255Z 02016KT 00/M09 A3056 RMK A01 T00011089  RH  051%=      5-min Rain = 0
KLO1 120256Z 02016KT 00/M09 A3056 RMK A01 T00011089  RH  051%=      5-min Rain = 0
KLO1 120257Z 02017KT 00/M09 A3056 RMK A01 T00021089  RH  051%=      5-min Rain = 0
KLO1 120258Z 02016KT 00/M09 A3056 RMK A01 T00021089  RH  051%=      5-min Rain = 0
KLO1 120259Z 02017KT 00/M09 A3056 RMK A01 T00011089  RH  051%=      5-min Rain = 0
KLO1 120300Z 01016KT 00/M09 A3056 RMK A01 T00011089  RH  051%=      5-min Rain = 0
KLO1 120301Z 02017KT 00/M09 A3056 RMK A01 T00011089  RH  051%=      5-min Rain = 0
KLO1 120302Z 02016KT 00/M09 A3056 RMK A01 T00011089  RH  051%=      5-min Rain = 0
KLO1 120303Z 02012KT 00/M09 A3056 RMK A01 T00011088  RH  051%=      5-min Rain = 0
KLO1 120304Z 02016G21KT 00/M09 A3056 RMK A01 T00021086  RH  052%=      5-min Rain = 0
KLO1 120305Z 02017KT 00/M09 A3056 RMK A01 T00011088  RH  051%=      5-min Rain = 0
KLO1 120306Z 02019KT 00/M09 A3057 RMK A01 T00011089  RH  050%=      5-min Rain = 0
KLO1 120307Z 02020KT 00/M09 A3057 RMK A01 T00011091  RH  050%=      5-min Rain = 0
KLO1 120308Z 02018KT 00/M09 A3057 RMK A01 T00011092  RH  050%=      5-min Rain = 0
KLO1 120309Z 02018KT 00/M09 A3057 RMK A01 T00011093  RH  049%=      5-min Rain = 0
KLO1 120310Z 02019KT 00/M09 A3057 RMK A01 T00011092  RH  049%=      5-min Rain = 0
KLO1 120311Z 01020KT 00/M09 A3057 RMK A01 T00011093  RH  049%=      5-min Rain = 0
KLO1 120312Z 01019KT 00/M09 A3057 RMK A01 T00011094  RH  049%=      5-min Rain = 0
KLO1 120313Z 02018KT 00/M09 A3057 RMK A01 T00011093  RH  049%=      5-min Rain = 0
KLO1 120314Z 02016KT 00/M09 A3057 RMK A01 T00011093  RH  049%=      5-min Rain = 0
KLO1 120315Z 02019KT 00/M09 A3057 RMK A01 T00011093  RH  049%=      5-min Rain = 0
KLO1 120316Z 02020KT 00/09 A3057 RMK A01 T00000-93  RH  049%=      5-min Rain = 0
KLO1 120317Z 02021KT 00/M09 A3057 RMK A01 T00011093  RH  049%=      5-min Rain = 0
KLO1 120318Z 02018KT 00/M09 A3057 RMK A01 T00011094  RH  049%=      5-min Rain = 0
KLO1 120319Z 02020KT 00/09 A3057 RMK A01 T00000-93  RH  049%=      5-min Rain = 0
KLO1 120320Z 02017KT 00/09 A3057 RMK A01 T00-00-94  RH  049%=      5-min Rain = 0
KLO1 120321Z 02018G23KT 00/09 A3057 RMK A01 T00000-94  RH  049%=      5-min Rain = 0
KLO1 120322Z 02018KT 00/09 A3057 RMK A01 T00000-94  RH  049%=      5-min Rain = 0
KLO1 120323Z 01014KT 00/09 A3057 RMK A01 T00000-93  RH  050%=      5-min Rain = 0
KLO1 120324Z 02019KT 00/09 A3057 RMK A01 T00000-92  RH  050%=      5-min Rain = 0
KLO1 120325Z 01013KT 00/09 A3057 RMK A01 T00000-92  RH  050%=      5-min Rain = 0
KLO1 120326Z 01016KT 00/09 A3057 RMK A01 T00000-91  RH  050%=      5-min Rain = 0
KLO1 120327Z 02014KT 00/09 A3057 RMK A01 T00000-90  RH  051%=      5-min Rain = 0
KLO1 120328Z 01012KT 00/09 A3057 RMK A01 T00000-88  RH  051%=      5-min Rain = 0
KLO1 120329Z 01012KT 00/09 A3057 RMK A01 T00000-87  RH  052%=      5-min Rain = 0
KLO1 120330Z 01013KT 00/09 A3057 RMK A01 T00000-87  RH  052%=      5-min Rain = 0
KLO1 120331Z 02011KT 00/09 A3058 RMK A01 T00000-86  RH  052%=      5-min Rain = 0
KLO1 120332Z 02015KT 00/09 A3058 RMK A01 T00000-85  RH  053%=      5-min Rain = 0
KLO1 120333Z 02013KT 00/09 A3058 RMK A01 T00-00-89  RH  051%=      5-min Rain = 0
KLO1 120334Z 02015KT 00/09 A3058 RMK A01 T00-00-88  RH  051%=      5-min Rain = 0
KLO1 120335Z 02017KT M00/M09 A3058 RMK A01 T10011090  RH  051%=      5-min Rain = 0
KLO1 120336Z 01016KT M00/M09 A3057 RMK A01 T10011091  RH  051%=      5-min Rain = 0
KLO1 120337Z 01018G23KT M00/M09 A3057 RMK A01 T10011093  RH  050%=      5-min Rain = 0
KLO1 120338Z 02018KT M00/M09 A3057 RMK A01 T10011093  RH  050%=      5-min Rain = 0
KLO1 120339Z 02017KT M00/M09 A3058 RMK A01 T10011092  RH  050%=      5-min Rain = 0
KLO1 120340Z 02019KT M00/M09 A3058 RMK A01 T10011092  RH  050%=      5-min Rain = 0
KLO1 120341Z 02018KT M00/M09 A3058 RMK A01 T10011093  RH  050%=      5-min Rain = 0
KLO1 120342Z 02016KT M00/M09 A3058 RMK A01 T10011093  RH  050%=      5-min Rain = 0
KLO1 120343Z 02016KT M00/M09 A3058 RMK A01 T10021093  RH  050%=      5-min Rain = 0
KLO1 120344Z 02016KT M00/M09 A3058 RMK A01 T10011093  RH  050%=      5-min Rain = 0
KLO1 120345Z 02015KT M00/M09 A3059 RMK A01 T10021094  RH  050%=      5-min Rain = 0
KLO1 120346Z 01016KT M00/M09 A3059 RMK A01 T10021094  RH  050%=      5-min Rain = 0
KLO1 120347Z 01015KT M00/M09 A3059 RMK A01 T10021094  RH  050%=      5-min Rain = 0
KLO1 120348Z 02014KT M00/M09 A3059 RMK A01 T10021093  RH  050%=      5-min Rain = 0
KLO1 120349Z 02017KT M00/M09 A3059 RMK A01 T10021092  RH  051%=      5-min Rain = 0
KLO1 120350Z 02017KT M00/M09 A3059 RMK A01 T10021093  RH  050%=      5-min Rain = 0
KLO1 120351Z 02019KT M00/M09 A3059 RMK A01 T10021093  RH  050%=      5-min Rain = 0
KLO1 120352Z 02016KT M00/M09 A3059 RMK A01 T10031094  RH  050%=      5-min Rain = 0
KLO1 120353Z 02016KT M00/M09 A3059 RMK A01 T10031094  RH  050%=      5-min Rain = 0
KLO1 120354Z 02016KT M00/M09 A3059 RMK A01 T10031093  RH  051%=      5-min Rain = 0
KLO1 120355Z 02017KT M00/M09 A3059 RMK A01 T10031093  RH  051%=      5-min Rain = 0
KLO1 120356Z 02015KT M00/M09 A3059 RMK A01 T10031092  RH  051%=      5-min Rain = 0
KLO1 120357Z 02015KT M00/M09 A3059 RMK A01 T10031092  RH  051%=      5-min Rain = 0
KLO1 120358Z 02017KT M00/M09 A3059 RMK A01 T10041093  RH  051%=      5-min Rain = 0
KLO1 120359Z 02017KT M00/M09 A3059 RMK A01 T10031093  RH  051%=      5-min Rain = 0
KLO1 120400Z 02018KT M00/M10 A3059 RMK A01 T10041095  RH  050%=      5-min Rain = 0
KLO1 120401Z 02017KT M00/M10 A3059 RMK A01 T10041095  RH  050%=      5-min Rain = 0
KLO1 120402Z 02019KT M00/M10 A3059 RMK A01 T10041096  RH  050%=      5-min Rain = 0
KLO1 120403Z 02017KT M00/M10 A3059 RMK A01 T10041096  RH  050%=      5-min Rain = 0
KLO1 120404Z 02018KT M00/M10 A3059 RMK A01 T10041095  RH  050%=      5-min Rain = 0
KLO1 120405Z 02017KT M00/M10 A3059 RMK A01 T10041096  RH  050%=      5-min Rain = 0
KLO1 120406Z 02017KT M00/M10 A3059 RMK A01 T10041095  RH  050%=      5-min Rain = 0
KLO1 120407Z 02018KT M00/M10 A3059 RMK A01 T10041095  RH  050%=      5-min Rain = 0
KLO1 120408Z 02018KT M01/M10 A3059 RMK A01 T10051096  RH  050%=      5-min Rain = 0
KLO1 120409Z 02019KT M01/M10 A3059 RMK A01 T10051096  RH  050%=      5-min Rain = 0
KLO1 120410Z 02020KT M01/M10 A3059 RMK A01 T10051098  RH  050%=      5-min Rain = 0
KLO1 120411Z 02019KT M01/M10 A3059 RMK A01 T10051097  RH  050%=      5-min Rain = 0
KLO1 120412Z 02020KT M01/M10 A3059 RMK A01 T10061098  RH  050%=      5-min Rain = 0
KLO1 120413Z 02019KT M01/M10 A3059 RMK A01 T10061099  RH  049%=      5-min Rain = 0
KLO1 120414Z 02021KT M01/M10 A3059 RMK A01 T10061098  RH  050%=      5-min Rain = 0
KLO1 120415Z 02019KT M01/M10 A3059 RMK A01 T10061098  RH  050%=      5-min Rain = 0
KLO1 120416Z 02017KT M01/M10 A3059 RMK A01 T10061098  RH  050%=      5-min Rain = 0
KLO1 120417Z 02014KT M01/M10 A306 RMK A01 T10061098  RH  050%=      5-min Rain = 0
KLO1 120418Z 02014KT M01/M10 A306 RMK A01 T10061097  RH  050%=      5-min Rain = 0
KLO1 120419Z 02014KT M01/M10 A306 RMK A01 T10071096  RH  051%=      5-min Rain = 0
KLO1 120420Z 02018KT M01/M10 A306 RMK A01 T10071096  RH  051%=      5-min Rain = 0
KLO1 120421Z 01013KT M01/M10 A306 RMK A01 T10071097  RH  051%=      5-min Rain = 0
KLO1 120422Z 02013KT M01/M10 A306 RMK A01 T10071096  RH  051%=      5-min Rain = 0
KLO1 120423Z 02016KT M01/M10 A306 RMK A01 T10071095  RH  051%=      5-min Rain = 0
KLO1 120424Z 02016KT M01/M10 A306 RMK A01 T10071096  RH  051%=      5-min Rain = 0
KLO1 120425Z 02015KT M01/M10 A306 RMK A01 T10071096  RH  051%=      5-min Rain = 0
KLO1 120426Z 02013KT M01/M10 A306 RMK A01 T10071095  RH  051%=      5-min Rain = 0
KLO1 120427Z 02015KT M01/M10 A306 RMK A01 T10071095  RH  051%=      5-min Rain = 0
KLO1 120428Z 02013KT M01/M10 A306 RMK A01 T10081095  RH  051%=      5-min Rain = 0
KLO1 120429Z 02012KT M01/M09 A306 RMK A01 T10081093  RH  052%=      5-min Rain = 0
KLO1 120430Z 02014KT M01/M09 A306 RMK A01 T10081094  RH  052%=      5-min Rain = 0
KLO1 120431Z 02012KT M01/M10 A306 RMK A01 T10081095  RH  052%=      5-min Rain = 0
KLO1 120432Z 02012KT M01/M09 A306 RMK A01 T10081094  RH  052%=      5-min Rain = 0
KLO1 120433Z 02011KT M01/M09 A306 RMK A01 T10081093  RH  053%=      5-min Rain = 0
KLO1 120434Z 02010KT M01/M09 A306 RMK A01 T10081092  RH  053%=      5-min Rain = 0
KLO1 120435Z 02010KT M01/M09 A306 RMK A01 T10091091  RH  054%=      5-min Rain = 0
KLO1 120436Z 02012KT M01/M09 A306 RMK A01 T10091091  RH  054%=      5-min Rain = 0
KLO1 120437Z 02011KT M01/M09 A306 RMK A01 T10091090  RH  054%=      5-min Rain = 0
KLO1 120438Z 02012KT M01/M09 A306 RMK A01 T10101090  RH  054%=      5-min Rain = 0
KLO1 120439Z 02013KT M01/M09 A306 RMK A01 T10101091  RH  054%=      5-min Rain = 0
KLO1 120440Z 02016KT M01/M09 A306 RMK A01 T10101093  RH  053%=      5-min Rain = 0
KLO1 120441Z 03013KT M01/M09 A306 RMK A01 T10101094  RH  053%=      5-min Rain = 0
KLO1 120442Z 03016KT M01/M09 A306 RMK A01 T10101093  RH  053%=      5-min Rain = 0
KLO1 120443Z 02015KT M01/M09 A306 RMK A01 T10101094  RH  053%=      5-min Rain = 0
KLO1 120444Z 01016G21KT M01/M10 A3059 RMK A01 T10101095  RH  053%=      5-min Rain = 0
KLO1 120445Z 02015KT M01/M10 A306 RMK A01 T10101096  RH  052%=      5-min Rain = 0
KLO1 120446Z 02017KT M01/M10 A306 RMK A01 T10101096  RH  052%=      5-min Rain = 0
KLO1 120447Z 02016G21KT M01/M10 A306 RMK A01 T10101096  RH  052%=      5-min Rain = 0
KLO1 120448Z 02015KT M01/M10 A306 RMK A01 T10101097  RH  052%=      5-min Rain = 0
KLO1 120449Z 02015KT M01/M10 A306 RMK A01 T10101096  RH  052%=      5-min Rain = 0
KLO1 120450Z 02016KT M01/M10 A306 RMK A01 T10101097  RH  052%=      5-min Rain = 0
KLO1 120451Z 02014KT M01/M10 A3061 RMK A01 T10101098  RH  051%=      5-min Rain = 0
KLO1 120452Z 02014KT M01/M10 A3061 RMK A01 T10111098  RH  052%=      5-min Rain = 0
KLO1 120453Z 01012KT M01/M10 A3061 RMK A01 T10111098  RH  052%=      5-min Rain = 0
KLO1 120454Z 02012KT M01/M10 A3061 RMK A01 T10111097  RH  052%=      5-min Rain = 0
KLO1 120455Z 02013KT M01/M10 A3062 RMK A01 T10111097  RH  052%=      5-min Rain = 0
KLO1 120456Z 02014KT M01/M10 A3062 RMK A01 T10111097  RH  052%=      5-min Rain = 0
KLO1 120457Z 02018KT M01/M10 A3062 RMK A01 T10111098  RH  052%=      5-min Rain = 0
KLO1 120458Z 02016KT M01/M10 A3062 RMK A01 T10111101  RH  051%=      5-min Rain = 0
KLO1 120459Z 02016KT M01/M10 A3061 RMK A01 T10111101  RH  051%=      5-min Rain = 0
KLO1 120500Z 02015KT M01/M10 A3061 RMK A01 T10111099  RH  051%=      5-min Rain = 0
KLO1 120501Z 01015KT M01/M10 A3061 RMK A01 T10111099  RH  051%=      5-min Rain = 0
KLO1 120502Z 02018KT M01/M10 A3061 RMK A01 T10111100  RH  051%=      5-min Rain = 0
KLO1 120503Z 02017KT M01/M10 A3061 RMK A01 T10111100  RH  051%=      5-min Rain = 0
KLO1 120504Z 02013G19KT M01/M10 A3061 RMK A01 T10111100  RH  051%=      5-min Rain = 0
KLO1 120505Z 02017KT M01/M10 A3061 RMK A01 T10111099  RH  051%=      5-min Rain = 0
KLO1 120506Z 02016KT M01/M10 A3061 RMK A01 T10111099  RH  052%=      5-min Rain = 0
KLO1 120507Z 02017KT M01/M10 A3061 RMK A01 T10121100  RH  051%=      5-min Rain = 0
KLO1 120508Z 02015KT M01/M10 A3061 RMK A01 T10121101  RH  051%=      5-min Rain = 0
KLO1 120509Z 01014KT M01/M10 A3061 RMK A01 T10121099  RH  051%=      5-min Rain = 0
KLO1 120510Z 02013KT M01/M10 A3061 RMK A01 T10121099  RH  052%=      5-min Rain = 0
KLO1 120511Z 02012KT M01/M10 A3061 RMK A01 T10121097  RH  052%=      5-min Rain = 0
KLO1 120512Z 03012KT M01/M10 A3061 RMK A01 T10121095  RH  053%=      5-min Rain = 0
KLO1 120513Z 02012KT M01/M10 A3061 RMK A01 T10131095  RH  054%=      5-min Rain = 0
KLO1 120514Z 03011KT M01/M10 A306 RMK A01 T10131095  RH  054%=      5-min Rain = 0
KLO1 120515Z 02013KT M01/M10 A306 RMK A01 T10141095  RH  054%=      5-min Rain = 0
KLO1 120516Z 03011KT M01/M10 A306 RMK A01 T10141096  RH  054%=      5-min Rain = 0
KLO1 120517Z 02012KT M01/M10 A3061 RMK A01 T10141095  RH  054%=      5-min Rain = 0
KLO1 120518Z 02013KT M01/M10 A3061 RMK A01 T10141095  RH  054%=      5-min Rain = 0
KLO1 120519Z 02010KT M01/M10 A3061 RMK A01 T10131096  RH  054%=      5-min Rain = 0
KLO1 120520Z 01014KT M01/M10 A3061 RMK A01 T10141096  RH  054%=      5-min Rain = 0
KLO1 120521Z 02014KT M01/M10 A3061 RMK A01 T10141099  RH  052%=      5-min Rain = 0
KLO1 120522Z 02013KT M01/M10 A3061 RMK A01 T10141100  RH  052%=      5-min Rain = 0
KLO1 120523Z 02012KT M01/M10 A3061 RMK A01 T10141099  RH  052%=      5-min Rain = 0
KLO1 120524Z 02015KT M01/M10 A3061 RMK A01 T10141099  RH  052%=      5-min Rain = 0
KLO1 120525Z 02013KT M01/M10 A3061 RMK A01 T10141100  RH  052%=      5-min Rain = 0
KLO1 120526Z 02014KT M01/M10 A3061 RMK A01 T10141100  RH  052%=      5-min Rain = 0
KLO1 120527Z 02013KT M01/M10 A3061 RMK A01 T10141101  RH  051%=      5-min Rain = 0
KLO1 120528Z 03013KT M01/M10 A3061 RMK A01 T10141101  RH  052%=      5-min Rain = 0
KLO1 120529Z 02013KT M01/M10 A3061 RMK A01 T10141100  RH  052%=      5-min Rain = 0
KLO1 120530Z 02011KT M01/M10 A3061 RMK A01 T10141099  RH  052%=      5-min Rain = 0
KLO1 120531Z 02012KT M01/M10 A3061 RMK A01 T10141098  RH  053%=      5-min Rain = 0
KLO1 120532Z 02011KT M02/M10 A3062 RMK A01 T10151099  RH  053%=      5-min Rain = 0
KLO1 120533Z 02012KT M02/M10 A3062 RMK A01 T10151098  RH  053%=      5-min Rain = 0
KLO1 120534Z 02012KT M02/M10 A3062 RMK A01 T10151098  RH  053%=      5-min Rain = 0
KLO1 120535Z 02012KT M02/M10 A3062 RMK A01 T10151099  RH  053%=      5-min Rain = 0
KLO1 120536Z 02011KT M02/M10 A3062 RMK A01 T10151100  RH  052%=      5-min Rain = 0
KLO1 120537Z 02011KT M01/M10 A3062 RMK A01 T10141098  RH  053%=      5-min Rain = 0
KLO1 120538Z 02010KT M02/M10 A3062 RMK A01 T10151099  RH  053%=      5-min Rain = 0
KLO1 120539Z 02010KT M02/M10 A3062 RMK A01 T10151097  RH  054%=      5-min Rain = 0
KLO1 120540Z 01010KT M02/M10 A3062 RMK A01 T10161098  RH  054%=      5-min Rain = 0
KLO1 120541Z 02009KT M02/M10 A3062 RMK A01 T10151097  RH  054%=      5-min Rain = 0
KLO1 120542Z 02011KT M02/M10 A3062 RMK A01 T10151096  RH  054%=      5-min Rain = 0
KLO1 120543Z 01010KT M02/M10 A3062 RMK A01 T10151096  RH  054%=      5-min Rain = 0
KLO1 120544Z 02009KT M02/M10 A3062 RMK A01 T10151096  RH  054%=      5-min Rain = 0
KLO1 120545Z 02009KT M02/M10 A3062 RMK A01 T10161096  RH  054%=      5-min Rain = 0
KLO1 120546Z 02010KT M02/M10 A3062 RMK A01 T10161096  RH  054%=      5-min Rain = 0
KLO1 120547Z 02009KT M02/M10 A3062 RMK A01 T10161097  RH  054%=      5-min Rain = 0
KLO1 120548Z 02010KT M02/M10 A3062 RMK A01 T10151096  RH  054%=      5-min Rain = 0
KLO1 120549Z 02009KT M02/M10 A3061 RMK A01 T10151096  RH  054%=      5-min Rain = 0
KLO1 120550Z 02010KT M02/M10 A3061 RMK A01 T10161096  RH  054%=      5-min Rain = 0
KLO1 120551Z 03009KT M02/M10 A3061 RMK A01 T10161095  RH  055%=      5-min Rain = 0
KLO1 120552Z 02010KT M02/M09 A3061 RMK A01 T10161094  RH  055%=      5-min Rain = 0
KLO1 120553Z 03010KT M02/M10 A3061 RMK A01 T10161095  RH  055%=      5-min Rain = 0
KLO1 120554Z 03011KT M02/M09 A3061 RMK A01 T10151094  RH  055%=      5-min Rain = 0
KLO1 120555Z 03012KT M02/M10 A3061 RMK A01 T10151095  RH  055%=      5-min Rain = 0
KLO1 120556Z 03012KT M02/M10 A3061 RMK A01 T10161096  RH  054%=      5-min Rain = 0
KLO1 120557Z 02011KT M02/M10 A3061 RMK A01 T10161096  RH  054%=      5-min Rain = 0
KLO1 120558Z 02012KT M02/M10 A3061 RMK A01 T10161095  RH  054%=      5-min Rain = 0
KLO1 120559Z 03015KT M02/M10 A3061 RMK A01 T10161095  RH  055%=      5-min Rain = 0

Page generated in 0.0719 seconds.